<?xml version="1.0" encoding="UTF-8" standalone="no" ?>
<gpx xmlns="http://www.topografix.com/GPX/1/1" xmlns:xsi="http://www.w3.org/2001/XMLSchema-instance" xsi:schemaLocation="http://www.topografix.com/GPX/1/1 http://www.topografix.com/GPX/1/1/gpx.xsd" version="1.1" creator="VisuGPX - https://www.visugpx.com">
  <metadata>
    <name>La Pègue</name>
  </metadata>
  <trk>
    <name><![CDATA[La Pègue]]></name>
    <trkseg>
      <trkpt lat="42.90559" lon="0.13097">
        <ele>1733</ele>
        <time>2022-04-25T09:46:54Z</time>
      </trkpt>
      <trkpt lat="42.90545" lon="0.13091">
        <ele>1736</ele>
        <time>2022-04-25T09:46:50Z</time>
      </trkpt>
      <trkpt lat="42.9054" lon="0.13099">
        <ele>1736</ele>
        <time>2022-04-25T09:46:48Z</time>
      </trkpt>
      <trkpt lat="42.9053" lon="0.13109">
        <ele>1737</ele>
        <time>2022-04-25T09:46:45Z</time>
      </trkpt>
      <trkpt lat="42.90526" lon="0.13108">
        <ele>1738</ele>
        <time>2022-04-25T09:46:44Z</time>
      </trkpt>
      <trkpt lat="42.90508" lon="0.13097">
        <ele>1745</ele>
        <time>2022-04-25T09:46:39Z</time>
      </trkpt>
      <trkpt lat="42.90499" lon="0.13092">
        <ele>1748</ele>
        <time>2022-04-25T09:46:34Z</time>
      </trkpt>
      <trkpt lat="42.90499" lon="0.13089">
        <ele>1748</ele>
        <time>2022-04-25T09:46:27Z</time>
      </trkpt>
      <trkpt lat="42.90498" lon="0.13088">
        <ele>1749</ele>
        <time>2022-04-25T09:46:26Z</time>
      </trkpt>
      <trkpt lat="42.90478" lon="0.13087">
        <ele>1753</ele>
        <time>2022-04-25T09:46:21Z</time>
      </trkpt>
      <trkpt lat="42.9047" lon="0.13087">
        <ele>1755</ele>
        <time>2022-04-25T09:46:19Z</time>
      </trkpt>
      <trkpt lat="42.90462" lon="0.13083">
        <ele>1759</ele>
        <time>2022-04-25T09:46:17Z</time>
      </trkpt>
      <trkpt lat="42.90452" lon="0.13084">
        <ele>1762</ele>
        <time>2022-04-25T09:46:15Z</time>
      </trkpt>
      <trkpt lat="42.90446" lon="0.13089">
        <ele>1764</ele>
        <time>2022-04-25T09:46:13Z</time>
      </trkpt>
      <trkpt lat="42.90433" lon="0.131">
        <ele>1767</ele>
        <time>2022-04-25T09:46:09Z</time>
      </trkpt>
      <trkpt lat="42.90418" lon="0.13106">
        <ele>1771</ele>
        <time>2022-04-25T09:46:05Z</time>
      </trkpt>
      <trkpt lat="42.90414" lon="0.13106">
        <ele>1773</ele>
        <time>2022-04-25T09:46:04Z</time>
      </trkpt>
      <trkpt lat="42.90406" lon="0.13105">
        <ele>1776</ele>
        <time>2022-04-25T09:46:02Z</time>
      </trkpt>
      <trkpt lat="42.90399" lon="0.1311">
        <ele>1778</ele>
        <time>2022-04-25T09:46:00Z</time>
      </trkpt>
      <trkpt lat="42.90381" lon="0.13112">
        <ele>1785</ele>
        <time>2022-04-25T09:45:55Z</time>
      </trkpt>
      <trkpt lat="42.90379" lon="0.13114">
        <ele>1786</ele>
        <time>2022-04-25T09:45:54Z</time>
      </trkpt>
      <trkpt lat="42.90367" lon="0.13116">
        <ele>1791</ele>
        <time>2022-04-25T09:45:50Z</time>
      </trkpt>
      <trkpt lat="42.90361" lon="0.1312">
        <ele>1792</ele>
        <time>2022-04-25T09:45:46Z</time>
      </trkpt>
      <trkpt lat="42.9036" lon="0.13119">
        <ele>1794</ele>
        <time>2022-04-25T09:45:44Z</time>
      </trkpt>
      <trkpt lat="42.90362" lon="0.13118">
        <ele>1793</ele>
        <time>2022-04-25T09:45:24Z</time>
      </trkpt>
      <trkpt lat="42.90363" lon="0.13119">
        <ele>1792</ele>
        <time>2022-04-25T09:45:05Z</time>
      </trkpt>
      <trkpt lat="42.90364" lon="0.1312">
        <ele>1791</ele>
        <time>2022-04-25T09:44:49Z</time>
      </trkpt>
      <trkpt lat="42.90356" lon="0.13118">
        <ele>1796</ele>
        <time>2022-04-25T09:44:37Z</time>
      </trkpt>
      <trkpt lat="42.90353" lon="0.13119">
        <ele>1797</ele>
        <time>2022-04-25T09:44:34Z</time>
      </trkpt>
      <trkpt lat="42.9035" lon="0.13117">
        <ele>1799</ele>
        <time>2022-04-25T09:44:29Z</time>
      </trkpt>
      <trkpt lat="42.90346" lon="0.13117">
        <ele>1801</ele>
        <time>2022-04-25T09:44:16Z</time>
      </trkpt>
      <trkpt lat="42.90345" lon="0.13121">
        <ele>1801</ele>
        <time>2022-04-25T09:44:03Z</time>
      </trkpt>
      <trkpt lat="42.90342" lon="0.13126">
        <ele>1801</ele>
        <time>2022-04-25T09:43:59Z</time>
      </trkpt>
      <trkpt lat="42.90342" lon="0.1313">
        <ele>1801</ele>
        <time>2022-04-25T09:43:50Z</time>
      </trkpt>
      <trkpt lat="42.90341" lon="0.13127">
        <ele>1802</ele>
        <time>2022-04-25T09:43:39Z</time>
      </trkpt>
      <trkpt lat="42.90341" lon="0.13125">
        <ele>1802</ele>
        <time>2022-04-25T09:43:37Z</time>
      </trkpt>
      <trkpt lat="42.90343" lon="0.13118">
        <ele>1802</ele>
        <time>2022-04-25T09:43:32Z</time>
      </trkpt>
      <trkpt lat="42.90338" lon="0.13099">
        <ele>1805</ele>
        <time>2022-04-25T09:43:18Z</time>
      </trkpt>
      <trkpt lat="42.90337" lon="0.13096">
        <ele>1805</ele>
        <time>2022-04-25T09:43:15Z</time>
      </trkpt>
      <trkpt lat="42.90339" lon="0.13093">
        <ele>1804</ele>
        <time>2022-04-25T09:42:59Z</time>
      </trkpt>
      <trkpt lat="42.90342" lon="0.13087">
        <ele>1802</ele>
        <time>2022-04-25T09:42:43Z</time>
      </trkpt>
      <trkpt lat="42.9034" lon="0.13085">
        <ele>1802</ele>
        <time>2022-04-25T09:42:29Z</time>
      </trkpt>
      <trkpt lat="42.90341" lon="0.13081">
        <ele>1801</ele>
        <time>2022-04-25T09:42:11Z</time>
      </trkpt>
      <trkpt lat="42.90337" lon="0.13082">
        <ele>1803</ele>
        <time>2022-04-25T09:41:57Z</time>
      </trkpt>
      <trkpt lat="42.90334" lon="0.13084">
        <ele>1805</ele>
        <time>2022-04-25T09:41:46Z</time>
      </trkpt>
      <trkpt lat="42.90331" lon="0.13083">
        <ele>1806</ele>
        <time>2022-04-25T09:41:32Z</time>
      </trkpt>
      <trkpt lat="42.90332" lon="0.13082">
        <ele>1806</ele>
        <time>2022-04-25T09:41:18Z</time>
      </trkpt>
      <trkpt lat="42.90326" lon="0.13083">
        <ele>1808</ele>
        <time>2022-04-25T09:40:59Z</time>
      </trkpt>
      <trkpt lat="42.90327" lon="0.13083">
        <ele>1808</ele>
        <time>2022-04-25T09:40:42Z</time>
      </trkpt>
      <trkpt lat="42.90329" lon="0.13082">
        <ele>1807</ele>
        <time>2022-04-25T09:40:29Z</time>
      </trkpt>
      <trkpt lat="42.90325" lon="0.13065">
        <ele>1808</ele>
        <time>2022-04-25T09:40:21Z</time>
      </trkpt>
      <trkpt lat="42.90328" lon="0.13057">
        <ele>1807</ele>
        <time>2022-04-25T09:40:13Z</time>
      </trkpt>
      <trkpt lat="42.90328" lon="0.13045">
        <ele>1807</ele>
        <time>2022-04-25T09:40:09Z</time>
      </trkpt>
      <trkpt lat="42.90329" lon="0.13039">
        <ele>1807</ele>
        <time>2022-04-25T09:40:06Z</time>
      </trkpt>
      <trkpt lat="42.9033" lon="0.13035">
        <ele>1806</ele>
        <time>2022-04-25T09:40:03Z</time>
      </trkpt>
      <trkpt lat="42.90332" lon="0.13029">
        <ele>1806</ele>
        <time>2022-04-25T09:39:52Z</time>
      </trkpt>
      <trkpt lat="42.90338" lon="0.13017">
        <ele>1803</ele>
        <time>2022-04-25T09:39:44Z</time>
      </trkpt>
      <trkpt lat="42.90339" lon="0.13008">
        <ele>1803</ele>
        <time>2022-04-25T09:39:37Z</time>
      </trkpt>
      <trkpt lat="42.90329" lon="0.13004">
        <ele>1808</ele>
        <time>2022-04-25T09:39:34Z</time>
      </trkpt>
      <trkpt lat="42.90322" lon="0.1301">
        <ele>1811</ele>
        <time>2022-04-25T09:39:32Z</time>
      </trkpt>
      <trkpt lat="42.90308" lon="0.13017">
        <ele>1816</ele>
        <time>2022-04-25T09:39:28Z</time>
      </trkpt>
      <trkpt lat="42.90292" lon="0.13027">
        <ele>1821</ele>
        <time>2022-04-25T09:39:23Z</time>
      </trkpt>
      <trkpt lat="42.90282" lon="0.1302">
        <ele>1823</ele>
        <time>2022-04-25T09:39:20Z</time>
      </trkpt>
      <trkpt lat="42.90264" lon="0.13019">
        <ele>1824</ele>
        <time>2022-04-25T09:39:16Z</time>
      </trkpt>
      <trkpt lat="42.90255" lon="0.13019">
        <ele>1825</ele>
        <time>2022-04-25T09:39:14Z</time>
      </trkpt>
      <trkpt lat="42.90247" lon="0.13024">
        <ele>1825</ele>
        <time>2022-04-25T09:39:12Z</time>
      </trkpt>
      <trkpt lat="42.90228" lon="0.1304">
        <ele>1828</ele>
        <time>2022-04-25T09:39:05Z</time>
      </trkpt>
      <trkpt lat="42.902" lon="0.13035">
        <ele>1830</ele>
        <time>2022-04-25T09:38:58Z</time>
      </trkpt>
      <trkpt lat="42.90187" lon="0.13045">
        <ele>1832</ele>
        <time>2022-04-25T09:38:54Z</time>
      </trkpt>
      <trkpt lat="42.90176" lon="0.13058">
        <ele>1833</ele>
        <time>2022-04-25T09:38:40Z</time>
      </trkpt>
      <trkpt lat="42.90176" lon="0.13058">
        <ele>1833</ele>
        <time>2022-04-25T09:38:26Z</time>
      </trkpt>
      <trkpt lat="42.90177" lon="0.13054">
        <ele>1833</ele>
        <time>2022-04-25T09:38:09Z</time>
      </trkpt>
      <trkpt lat="42.90174" lon="0.13067">
        <ele>1834</ele>
        <time>2022-04-25T09:37:58Z</time>
      </trkpt>
      <trkpt lat="42.90167" lon="0.13098">
        <ele>1835</ele>
        <time>2022-04-25T09:37:50Z</time>
      </trkpt>
      <trkpt lat="42.90168" lon="0.13101">
        <ele>1835</ele>
        <time>2022-04-25T09:37:49Z</time>
      </trkpt>
      <trkpt lat="42.90155" lon="0.13106">
        <ele>1837</ele>
        <time>2022-04-25T09:37:44Z</time>
      </trkpt>
      <trkpt lat="42.90138" lon="0.13088">
        <ele>1839</ele>
        <time>2022-04-25T09:37:41Z</time>
      </trkpt>
      <trkpt lat="42.90128" lon="0.1309">
        <ele>1845</ele>
        <time>2022-04-25T09:37:39Z</time>
      </trkpt>
      <trkpt lat="42.90124" lon="0.13103">
        <ele>1848</ele>
        <time>2022-04-25T09:37:37Z</time>
      </trkpt>
      <trkpt lat="42.90126" lon="0.13121">
        <ele>1848</ele>
        <time>2022-04-25T09:37:35Z</time>
      </trkpt>
      <trkpt lat="42.90132" lon="0.13143">
        <ele>1847</ele>
        <time>2022-04-25T09:37:33Z</time>
      </trkpt>
      <trkpt lat="42.90119" lon="0.13149">
        <ele>1853</ele>
        <time>2022-04-25T09:37:31Z</time>
      </trkpt>
      <trkpt lat="42.90108" lon="0.13146">
        <ele>1858</ele>
        <time>2022-04-25T09:37:29Z</time>
      </trkpt>
      <trkpt lat="42.90097" lon="0.1315">
        <ele>1864</ele>
        <time>2022-04-25T09:37:27Z</time>
      </trkpt>
      <trkpt lat="42.90084" lon="0.13147">
        <ele>1871</ele>
        <time>2022-04-25T09:37:24Z</time>
      </trkpt>
      <trkpt lat="42.90082" lon="0.1315">
        <ele>1873</ele>
        <time>2022-04-25T09:37:23Z</time>
      </trkpt>
      <trkpt lat="42.90067" lon="0.13143">
        <ele>1882</ele>
        <time>2022-04-25T09:37:19Z</time>
      </trkpt>
      <trkpt lat="42.90054" lon="0.13145">
        <ele>1891</ele>
        <time>2022-04-25T09:37:15Z</time>
      </trkpt>
      <trkpt lat="42.90055" lon="0.13153">
        <ele>1892</ele>
        <time>2022-04-25T09:37:14Z</time>
      </trkpt>
      <trkpt lat="42.90046" lon="0.1316">
        <ele>1898</ele>
        <time>2022-04-25T09:37:12Z</time>
      </trkpt>
      <trkpt lat="42.90038" lon="0.13157">
        <ele>1902</ele>
        <time>2022-04-25T09:37:10Z</time>
      </trkpt>
      <trkpt lat="42.90031" lon="0.13156">
        <ele>1906</ele>
        <time>2022-04-25T09:37:08Z</time>
      </trkpt>
      <trkpt lat="42.9002" lon="0.13163">
        <ele>1913</ele>
        <time>2022-04-25T09:37:06Z</time>
      </trkpt>
      <trkpt lat="42.90018" lon="0.13167">
        <ele>1915</ele>
        <time>2022-04-25T09:37:05Z</time>
      </trkpt>
      <trkpt lat="42.90005" lon="0.13156">
        <ele>1922</ele>
        <time>2022-04-25T09:37:02Z</time>
      </trkpt>
      <trkpt lat="42.89999" lon="0.13142">
        <ele>1924</ele>
        <time>2022-04-25T09:37:01Z</time>
      </trkpt>
      <trkpt lat="42.89993" lon="0.13138">
        <ele>1927</ele>
        <time>2022-04-25T09:36:59Z</time>
      </trkpt>
      <trkpt lat="42.89987" lon="0.13143">
        <ele>1931</ele>
        <time>2022-04-25T09:36:57Z</time>
      </trkpt>
      <trkpt lat="42.89977" lon="0.13137">
        <ele>1936</ele>
        <time>2022-04-25T09:36:55Z</time>
      </trkpt>
      <trkpt lat="42.89966" lon="0.1315">
        <ele>1943</ele>
        <time>2022-04-25T09:36:51Z</time>
      </trkpt>
      <trkpt lat="42.89966" lon="0.13159">
        <ele>1943</ele>
        <time>2022-04-25T09:36:47Z</time>
      </trkpt>
      <trkpt lat="42.89965" lon="0.1316">
        <ele>1944</ele>
        <time>2022-04-25T09:36:45Z</time>
      </trkpt>
      <trkpt lat="42.89965" lon="0.13166">
        <ele>1944</ele>
        <time>2022-04-25T09:36:39Z</time>
      </trkpt>
      <trkpt lat="42.89977" lon="0.13182">
        <ele>1939</ele>
        <time>2022-04-25T09:36:14Z</time>
      </trkpt>
      <trkpt lat="42.89982" lon="0.1319">
        <ele>1937</ele>
        <time>2022-04-25T09:36:07Z</time>
      </trkpt>
      <trkpt lat="42.89968" lon="0.13202">
        <ele>1943</ele>
        <time>2022-04-25T09:36:04Z</time>
      </trkpt>
      <trkpt lat="42.89954" lon="0.13219">
        <ele>1949</ele>
        <time>2022-04-25T09:36:00Z</time>
      </trkpt>
      <trkpt lat="42.89955" lon="0.13236">
        <ele>1949</ele>
        <time>2022-04-25T09:35:58Z</time>
      </trkpt>
      <trkpt lat="42.89944" lon="0.13249">
        <ele>1954</ele>
        <time>2022-04-25T09:35:55Z</time>
      </trkpt>
      <trkpt lat="42.89937" lon="0.13249">
        <ele>1956</ele>
        <time>2022-04-25T09:35:54Z</time>
      </trkpt>
      <trkpt lat="42.89929" lon="0.13266">
        <ele>1960</ele>
        <time>2022-04-25T09:35:50Z</time>
      </trkpt>
      <trkpt lat="42.89928" lon="0.13274">
        <ele>1960</ele>
        <time>2022-04-25T09:35:49Z</time>
      </trkpt>
      <trkpt lat="42.89922" lon="0.13291">
        <ele>1962</ele>
        <time>2022-04-25T09:35:47Z</time>
      </trkpt>
      <trkpt lat="42.89911" lon="0.13293">
        <ele>1965</ele>
        <time>2022-04-25T09:35:45Z</time>
      </trkpt>
      <trkpt lat="42.89903" lon="0.13305">
        <ele>1969</ele>
        <time>2022-04-25T09:35:43Z</time>
      </trkpt>
      <trkpt lat="42.89897" lon="0.1331">
        <ele>1971</ele>
        <time>2022-04-25T09:35:42Z</time>
      </trkpt>
      <trkpt lat="42.89887" lon="0.13317">
        <ele>1975</ele>
        <time>2022-04-25T09:35:40Z</time>
      </trkpt>
      <trkpt lat="42.89877" lon="0.13323">
        <ele>1980</ele>
        <time>2022-04-25T09:35:38Z</time>
      </trkpt>
      <trkpt lat="42.89872" lon="0.13325">
        <ele>1982</ele>
        <time>2022-04-25T09:35:37Z</time>
      </trkpt>
      <trkpt lat="42.8987" lon="0.13336">
        <ele>1984</ele>
        <time>2022-04-25T09:35:35Z</time>
      </trkpt>
      <trkpt lat="42.89871" lon="0.13344">
        <ele>1985</ele>
        <time>2022-04-25T09:35:32Z</time>
      </trkpt>
      <trkpt lat="42.89877" lon="0.13346">
        <ele>1982</ele>
        <time>2022-04-25T09:35:12Z</time>
      </trkpt>
      <trkpt lat="42.89871" lon="0.1333">
        <ele>1983</ele>
        <time>2022-04-25T09:34:46Z</time>
      </trkpt>
      <trkpt lat="42.89873" lon="0.13318">
        <ele>1981</ele>
        <time>2022-04-25T09:34:39Z</time>
      </trkpt>
      <trkpt lat="42.89871" lon="0.13311">
        <ele>1981</ele>
        <time>2022-04-25T09:34:37Z</time>
      </trkpt>
      <trkpt lat="42.89858" lon="0.1331">
        <ele>1987</ele>
        <time>2022-04-25T09:34:34Z</time>
      </trkpt>
      <trkpt lat="42.89846" lon="0.13313">
        <ele>1995</ele>
        <time>2022-04-25T09:34:32Z</time>
      </trkpt>
      <trkpt lat="42.8984" lon="0.13316">
        <ele>1998</ele>
        <time>2022-04-25T09:34:31Z</time>
      </trkpt>
      <trkpt lat="42.89832" lon="0.13332">
        <ele>2002</ele>
        <time>2022-04-25T09:34:29Z</time>
      </trkpt>
      <trkpt lat="42.89823" lon="0.13339">
        <ele>2006</ele>
        <time>2022-04-25T09:34:27Z</time>
      </trkpt>
      <trkpt lat="42.89816" lon="0.13341">
        <ele>2009</ele>
        <time>2022-04-25T09:34:26Z</time>
      </trkpt>
      <trkpt lat="42.8981" lon="0.13355">
        <ele>2015</ele>
        <time>2022-04-25T09:34:24Z</time>
      </trkpt>
      <trkpt lat="42.89806" lon="0.13373">
        <ele>2021</ele>
        <time>2022-04-25T09:34:22Z</time>
      </trkpt>
      <trkpt lat="42.89795" lon="0.13383">
        <ele>2027</ele>
        <time>2022-04-25T09:34:20Z</time>
      </trkpt>
      <trkpt lat="42.89788" lon="0.13387">
        <ele>2029</ele>
        <time>2022-04-25T09:34:19Z</time>
      </trkpt>
      <trkpt lat="42.89783" lon="0.13393">
        <ele>2032</ele>
        <time>2022-04-25T09:34:18Z</time>
      </trkpt>
      <trkpt lat="42.89772" lon="0.13409">
        <ele>2038</ele>
        <time>2022-04-25T09:34:15Z</time>
      </trkpt>
      <trkpt lat="42.89767" lon="0.1341">
        <ele>2040</ele>
        <time>2022-04-25T09:34:14Z</time>
      </trkpt>
      <trkpt lat="42.89761" lon="0.13411">
        <ele>2042</ele>
        <time>2022-04-25T09:34:13Z</time>
      </trkpt>
      <trkpt lat="42.89755" lon="0.13415">
        <ele>2044</ele>
        <time>2022-04-25T09:34:12Z</time>
      </trkpt>
      <trkpt lat="42.89743" lon="0.13428">
        <ele>2050</ele>
        <time>2022-04-25T09:34:09Z</time>
      </trkpt>
      <trkpt lat="42.89733" lon="0.13435">
        <ele>2053</ele>
        <time>2022-04-25T09:34:08Z</time>
      </trkpt>
      <trkpt lat="42.89729" lon="0.13441">
        <ele>2055</ele>
        <time>2022-04-25T09:34:07Z</time>
      </trkpt>
      <trkpt lat="42.89724" lon="0.13447">
        <ele>2056</ele>
        <time>2022-04-25T09:34:06Z</time>
      </trkpt>
      <trkpt lat="42.89719" lon="0.1345">
        <ele>2057</ele>
        <time>2022-04-25T09:34:05Z</time>
      </trkpt>
      <trkpt lat="42.89716" lon="0.13456">
        <ele>2058</ele>
        <time>2022-04-25T09:34:04Z</time>
      </trkpt>
      <trkpt lat="42.89687" lon="0.13477">
        <ele>2061</ele>
        <time>2022-04-25T09:33:53Z</time>
      </trkpt>
      <trkpt lat="42.89673" lon="0.13484">
        <ele>2062</ele>
        <time>2022-04-25T09:33:49Z</time>
      </trkpt>
      <trkpt lat="42.89648" lon="0.13489">
        <ele>2065</ele>
        <time>2022-04-25T09:33:39Z</time>
      </trkpt>
      <trkpt lat="42.89647" lon="0.1349">
        <ele>2066</ele>
        <time>2022-04-25T09:33:38Z</time>
      </trkpt>
      <trkpt lat="42.89632" lon="0.13496">
        <ele>2067</ele>
        <time>2022-04-25T09:33:30Z</time>
      </trkpt>
      <trkpt lat="42.89619" lon="0.135">
        <ele>2068</ele>
        <time>2022-04-25T09:33:27Z</time>
      </trkpt>
      <trkpt lat="42.89596" lon="0.13498">
        <ele>2069</ele>
        <time>2022-04-25T09:33:24Z</time>
      </trkpt>
      <trkpt lat="42.89563" lon="0.13485">
        <ele>2070</ele>
        <time>2022-04-25T09:33:18Z</time>
      </trkpt>
      <trkpt lat="42.89546" lon="0.13479">
        <ele>2071</ele>
        <time>2022-04-25T09:33:15Z</time>
      </trkpt>
      <trkpt lat="42.89534" lon="0.13485">
        <ele>2071</ele>
        <time>2022-04-25T09:33:13Z</time>
      </trkpt>
      <trkpt lat="42.8952" lon="0.13479">
        <ele>2075</ele>
        <time>2022-04-25T09:33:10Z</time>
      </trkpt>
      <trkpt lat="42.89515" lon="0.13475">
        <ele>2076</ele>
        <time>2022-04-25T09:33:09Z</time>
      </trkpt>
      <trkpt lat="42.89505" lon="0.13472">
        <ele>2080</ele>
        <time>2022-04-25T09:33:07Z</time>
      </trkpt>
      <trkpt lat="42.89501" lon="0.13473">
        <ele>2081</ele>
        <time>2022-04-25T09:33:06Z</time>
      </trkpt>
      <trkpt lat="42.89493" lon="0.13464">
        <ele>2085</ele>
        <time>2022-04-25T09:33:04Z</time>
      </trkpt>
      <trkpt lat="42.89486" lon="0.13447">
        <ele>2091</ele>
        <time>2022-04-25T09:33:02Z</time>
      </trkpt>
      <trkpt lat="42.89482" lon="0.13439">
        <ele>2093</ele>
        <time>2022-04-25T09:33:01Z</time>
      </trkpt>
      <trkpt lat="42.8947" lon="0.13437">
        <ele>2098</ele>
        <time>2022-04-25T09:32:56Z</time>
      </trkpt>
      <trkpt lat="42.89475" lon="0.13437">
        <ele>2096</ele>
        <time>2022-04-25T09:32:43Z</time>
      </trkpt>
      <trkpt lat="42.89487" lon="0.13438">
        <ele>2092</ele>
        <time>2022-04-25T09:32:16Z</time>
      </trkpt>
      <trkpt lat="42.8948" lon="0.13436">
        <ele>2094</ele>
        <time>2022-04-25T09:32:09Z</time>
      </trkpt>
      <trkpt lat="42.89467" lon="0.13425">
        <ele>2100</ele>
        <time>2022-04-25T09:32:07Z</time>
      </trkpt>
      <trkpt lat="42.89461" lon="0.13422">
        <ele>2103</ele>
        <time>2022-04-25T09:32:06Z</time>
      </trkpt>
      <trkpt lat="42.89434" lon="0.13421">
        <ele>2112</ele>
        <time>2022-04-25T09:32:01Z</time>
      </trkpt>
      <trkpt lat="42.89419" lon="0.13421">
        <ele>2118</ele>
        <time>2022-04-25T09:31:59Z</time>
      </trkpt>
      <trkpt lat="42.89406" lon="0.13414">
        <ele>2119</ele>
        <time>2022-04-25T09:31:57Z</time>
      </trkpt>
      <trkpt lat="42.89397" lon="0.13405">
        <ele>2120</ele>
        <time>2022-04-25T09:31:55Z</time>
      </trkpt>
      <trkpt lat="42.89393" lon="0.134">
        <ele>2120</ele>
        <time>2022-04-25T09:31:54Z</time>
      </trkpt>
      <trkpt lat="42.89386" lon="0.13392">
        <ele>2121</ele>
        <time>2022-04-25T09:31:52Z</time>
      </trkpt>
      <trkpt lat="42.89382" lon="0.13393">
        <ele>2122</ele>
        <time>2022-04-25T09:31:51Z</time>
      </trkpt>
      <trkpt lat="42.89373" lon="0.13408">
        <ele>2127</ele>
        <time>2022-04-25T09:31:47Z</time>
      </trkpt>
      <trkpt lat="42.89365" lon="0.13412">
        <ele>2130</ele>
        <time>2022-04-25T09:31:39Z</time>
      </trkpt>
      <trkpt lat="42.89354" lon="0.13403">
        <ele>2133</ele>
        <time>2022-04-25T09:31:36Z</time>
      </trkpt>
      <trkpt lat="42.89349" lon="0.13412">
        <ele>2138</ele>
        <time>2022-04-25T09:31:16Z</time>
      </trkpt>
      <trkpt lat="42.89343" lon="0.13414">
        <ele>2141</ele>
        <time>2022-04-25T09:31:11Z</time>
      </trkpt>
      <trkpt lat="42.89339" lon="0.13413">
        <ele>2143</ele>
        <time>2022-04-25T09:31:10Z</time>
      </trkpt>
      <trkpt lat="42.89323" lon="0.13416">
        <ele>2152</ele>
        <time>2022-04-25T09:31:07Z</time>
      </trkpt>
      <trkpt lat="42.89311" lon="0.13412">
        <ele>2155</ele>
        <time>2022-04-25T09:31:04Z</time>
      </trkpt>
      <trkpt lat="42.89306" lon="0.13411">
        <ele>2157</ele>
        <time>2022-04-25T09:31:03Z</time>
      </trkpt>
      <trkpt lat="42.89299" lon="0.13407">
        <ele>2157</ele>
        <time>2022-04-25T09:31:01Z</time>
      </trkpt>
      <trkpt lat="42.89286" lon="0.13423">
        <ele>2165</ele>
        <time>2022-04-25T09:30:58Z</time>
      </trkpt>
      <trkpt lat="42.89282" lon="0.13427">
        <ele>2168</ele>
        <time>2022-04-25T09:30:57Z</time>
      </trkpt>
      <trkpt lat="42.89276" lon="0.13433">
        <ele>2171</ele>
        <time>2022-04-25T09:30:54Z</time>
      </trkpt>
      <trkpt lat="42.89269" lon="0.13427">
        <ele>2169</ele>
        <time>2022-04-25T09:30:52Z</time>
      </trkpt>
      <trkpt lat="42.89256" lon="0.13411">
        <ele>2166</ele>
        <time>2022-04-25T09:30:48Z</time>
      </trkpt>
      <trkpt lat="42.89242" lon="0.1341">
        <ele>2171</ele>
        <time>2022-04-25T09:30:46Z</time>
      </trkpt>
      <trkpt lat="42.89234" lon="0.13418">
        <ele>2176</ele>
        <time>2022-04-25T09:30:44Z</time>
      </trkpt>
      <trkpt lat="42.89232" lon="0.13422">
        <ele>2177</ele>
        <time>2022-04-25T09:30:43Z</time>
      </trkpt>
      <trkpt lat="42.89226" lon="0.13414">
        <ele>2179</ele>
        <time>2022-04-25T09:30:41Z</time>
      </trkpt>
      <trkpt lat="42.89222" lon="0.13408">
        <ele>2180</ele>
        <time>2022-04-25T09:30:40Z</time>
      </trkpt>
      <trkpt lat="42.89218" lon="0.13405">
        <ele>2183</ele>
        <time>2022-04-25T09:30:39Z</time>
      </trkpt>
      <trkpt lat="42.89214" lon="0.1341">
        <ele>2187</ele>
        <time>2022-04-25T09:30:37Z</time>
      </trkpt>
      <trkpt lat="42.89207" lon="0.1341">
        <ele>2192</ele>
        <time>2022-04-25T09:30:34Z</time>
      </trkpt>
      <trkpt lat="42.89202" lon="0.13392">
        <ele>2194</ele>
        <time>2022-04-25T09:30:28Z</time>
      </trkpt>
      <trkpt lat="42.89205" lon="0.13391">
        <ele>2192</ele>
        <time>2022-04-25T09:30:07Z</time>
      </trkpt>
      <trkpt lat="42.89203" lon="0.13388">
        <ele>2194</ele>
        <time>2022-04-25T09:29:51Z</time>
      </trkpt>
      <trkpt lat="42.89194" lon="0.13368">
        <ele>2199</ele>
        <time>2022-04-25T09:29:42Z</time>
      </trkpt>
      <trkpt lat="42.89177" lon="0.13355">
        <ele>2202</ele>
        <time>2022-04-25T09:29:36Z</time>
      </trkpt>
      <trkpt lat="42.89172" lon="0.13333">
        <ele>2201</ele>
        <time>2022-04-25T09:29:34Z</time>
      </trkpt>
      <trkpt lat="42.89167" lon="0.13318">
        <ele>2202</ele>
        <time>2022-04-25T09:29:32Z</time>
      </trkpt>
      <trkpt lat="42.89158" lon="0.13318">
        <ele>2210</ele>
        <time>2022-04-25T09:29:29Z</time>
      </trkpt>
      <trkpt lat="42.89156" lon="0.13321">
        <ele>2211</ele>
        <time>2022-04-25T09:29:27Z</time>
      </trkpt>
      <trkpt lat="42.89149" lon="0.13319">
        <ele>2217</ele>
        <time>2022-04-25T09:29:24Z</time>
      </trkpt>
      <trkpt lat="42.89137" lon="0.13317">
        <ele>2226</ele>
        <time>2022-04-25T09:29:18Z</time>
      </trkpt>
      <trkpt lat="42.89137" lon="0.13318">
        <ele>2226</ele>
        <time>2022-04-25T09:29:16Z</time>
      </trkpt>
      <trkpt lat="42.89142" lon="0.13321">
        <ele>2222</ele>
        <time>2022-04-25T09:28:56Z</time>
      </trkpt>
      <trkpt lat="42.8914" lon="0.13323">
        <ele>2224</ele>
        <time>2022-04-25T09:28:51Z</time>
      </trkpt>
      <trkpt lat="42.89131" lon="0.13324">
        <ele>2231</ele>
        <time>2022-04-25T09:28:49Z</time>
      </trkpt>
      <trkpt lat="42.89118" lon="0.13324">
        <ele>2242</ele>
        <time>2022-04-25T09:28:47Z</time>
      </trkpt>
      <trkpt lat="42.89109" lon="0.13328">
        <ele>2249</ele>
        <time>2022-04-25T09:28:45Z</time>
      </trkpt>
      <trkpt lat="42.89099" lon="0.13326">
        <ele>2252</ele>
        <time>2022-04-25T09:28:43Z</time>
      </trkpt>
      <trkpt lat="42.89081" lon="0.13324">
        <ele>2256</ele>
        <time>2022-04-25T09:28:39Z</time>
      </trkpt>
      <trkpt lat="42.89077" lon="0.13321">
        <ele>2256</ele>
        <time>2022-04-25T09:28:38Z</time>
      </trkpt>
      <trkpt lat="42.89069" lon="0.13324">
        <ele>2259</ele>
        <time>2022-04-25T09:28:36Z</time>
      </trkpt>
      <trkpt lat="42.89061" lon="0.13326">
        <ele>2261</ele>
        <time>2022-04-25T09:28:34Z</time>
      </trkpt>
      <trkpt lat="42.89051" lon="0.1332">
        <ele>2262</ele>
        <time>2022-04-25T09:28:32Z</time>
      </trkpt>
      <trkpt lat="42.89046" lon="0.1332">
        <ele>2265</ele>
        <time>2022-04-25T09:28:31Z</time>
      </trkpt>
      <trkpt lat="42.89039" lon="0.13323">
        <ele>2269</ele>
        <time>2022-04-25T09:28:28Z</time>
      </trkpt>
      <trkpt lat="42.89034" lon="0.13313">
        <ele>2270</ele>
        <time>2022-04-25T09:28:25Z</time>
      </trkpt>
      <trkpt lat="42.89031" lon="0.13302">
        <ele>2270</ele>
        <time>2022-04-25T09:28:23Z</time>
      </trkpt>
      <trkpt lat="42.89025" lon="0.13281">
        <ele>2271</ele>
        <time>2022-04-25T09:28:20Z</time>
      </trkpt>
      <trkpt lat="42.89014" lon="0.13257">
        <ele>2276</ele>
        <time>2022-04-25T09:28:14Z</time>
      </trkpt>
      <trkpt lat="42.89012" lon="0.13255">
        <ele>2277</ele>
        <time>2022-04-25T09:28:12Z</time>
      </trkpt>
      <trkpt lat="42.8901" lon="0.13252">
        <ele>2278</ele>
        <time>2022-04-25T09:27:51Z</time>
      </trkpt>
      <trkpt lat="42.89008" lon="0.13261">
        <ele>2280</ele>
        <time>2022-04-25T09:27:33Z</time>
      </trkpt>
      <trkpt lat="42.89005" lon="0.1326">
        <ele>2281</ele>
        <time>2022-04-25T09:27:17Z</time>
      </trkpt>
      <trkpt lat="42.89006" lon="0.13267">
        <ele>2282</ele>
        <time>2022-04-25T09:27:03Z</time>
      </trkpt>
      <trkpt lat="42.89004" lon="0.13257">
        <ele>2281</ele>
        <time>2022-04-25T09:27:00Z</time>
      </trkpt>
      <trkpt lat="42.88998" lon="0.13244">
        <ele>2283</ele>
        <time>2022-04-25T09:26:58Z</time>
      </trkpt>
      <trkpt lat="42.88989" lon="0.13242">
        <ele>2288</ele>
        <time>2022-04-25T09:26:56Z</time>
      </trkpt>
      <trkpt lat="42.88982" lon="0.13234">
        <ele>2291</ele>
        <time>2022-04-25T09:26:54Z</time>
      </trkpt>
      <trkpt lat="42.88975" lon="0.13228">
        <ele>2295</ele>
        <time>2022-04-25T09:26:52Z</time>
      </trkpt>
      <trkpt lat="42.88964" lon="0.13237">
        <ele>2301</ele>
        <time>2022-04-25T09:26:47Z</time>
      </trkpt>
      <trkpt lat="42.88966" lon="0.13237">
        <ele>2300</ele>
        <time>2022-04-25T09:26:33Z</time>
      </trkpt>
      <trkpt lat="42.88967" lon="0.13236">
        <ele>2299</ele>
        <time>2022-04-25T09:26:24Z</time>
      </trkpt>
      <trkpt lat="42.8896" lon="0.13226">
        <ele>2302</ele>
        <time>2022-04-25T09:26:22Z</time>
      </trkpt>
      <trkpt lat="42.88945" lon="0.1321">
        <ele>2309</ele>
        <time>2022-04-25T09:26:18Z</time>
      </trkpt>
      <trkpt lat="42.88946" lon="0.13203">
        <ele>2310</ele>
        <time>2022-04-25T09:26:16Z</time>
      </trkpt>
      <trkpt lat="42.88948" lon="0.13191">
        <ele>2310</ele>
        <time>2022-04-25T09:26:13Z</time>
      </trkpt>
      <trkpt lat="42.88953" lon="0.13161">
        <ele>2312</ele>
        <time>2022-04-25T09:26:06Z</time>
      </trkpt>
      <trkpt lat="42.88955" lon="0.13155">
        <ele>2312</ele>
        <time>2022-04-25T09:26:04Z</time>
      </trkpt>
      <trkpt lat="42.88958" lon="0.13147">
        <ele>2312</ele>
        <time>2022-04-25T09:26:02Z</time>
      </trkpt>
      <trkpt lat="42.88959" lon="0.13133">
        <ele>2314</ele>
        <time>2022-04-25T09:25:58Z</time>
      </trkpt>
      <trkpt lat="42.88959" lon="0.13132">
        <ele>2314</ele>
        <time>2022-04-25T09:25:43Z</time>
      </trkpt>
      <trkpt lat="42.88959" lon="0.1312">
        <ele>2316</ele>
        <time>2022-04-25T09:25:32Z</time>
      </trkpt>
      <trkpt lat="42.88959" lon="0.1312">
        <ele>2316</ele>
        <time>2022-04-25T09:25:30Z</time>
      </trkpt>
      <trkpt lat="42.88953" lon="0.1313">
        <ele>2318</ele>
        <time>2022-04-25T09:25:27Z</time>
      </trkpt>
      <trkpt lat="42.88953" lon="0.13129">
        <ele>2318</ele>
        <time>2022-04-25T09:25:26Z</time>
      </trkpt>
      <trkpt lat="42.88948" lon="0.13117">
        <ele>2324</ele>
        <time>2022-04-25T09:25:22Z</time>
      </trkpt>
      <trkpt lat="42.88944" lon="0.13114">
        <ele>2327</ele>
        <time>2022-04-25T09:25:21Z</time>
      </trkpt>
      <trkpt lat="42.88938" lon="0.13118">
        <ele>2331</ele>
        <time>2022-04-25T09:25:19Z</time>
      </trkpt>
      <trkpt lat="42.88935" lon="0.13125">
        <ele>2331</ele>
        <time>2022-04-25T09:25:17Z</time>
      </trkpt>
      <trkpt lat="42.88925" lon="0.1312">
        <ele>2339</ele>
        <time>2022-04-25T09:25:13Z</time>
      </trkpt>
      <trkpt lat="42.88922" lon="0.13118">
        <ele>2341</ele>
        <time>2022-04-25T09:25:12Z</time>
      </trkpt>
      <trkpt lat="42.88915" lon="0.13126">
        <ele>2344</ele>
        <time>2022-04-25T09:25:09Z</time>
      </trkpt>
      <trkpt lat="42.8891" lon="0.13129">
        <ele>2348</ele>
        <time>2022-04-25T09:25:07Z</time>
      </trkpt>
      <trkpt lat="42.88903" lon="0.13118">
        <ele>2355</ele>
        <time>2022-04-25T09:25:04Z</time>
      </trkpt>
      <trkpt lat="42.88897" lon="0.13114">
        <ele>2362</ele>
        <time>2022-04-25T09:25:01Z</time>
      </trkpt>
      <trkpt lat="42.88895" lon="0.13119">
        <ele>2362</ele>
        <time>2022-04-25T09:24:58Z</time>
      </trkpt>
      <trkpt lat="42.88893" lon="0.1312">
        <ele>2363</ele>
        <time>2022-04-25T09:24:43Z</time>
      </trkpt>
      <trkpt lat="42.88898" lon="0.13125">
        <ele>2358</ele>
        <time>2022-04-25T09:24:29Z</time>
      </trkpt>
      <trkpt lat="42.88898" lon="0.13129">
        <ele>2358</ele>
        <time>2022-04-25T09:24:28Z</time>
      </trkpt>
      <trkpt lat="42.88893" lon="0.13131">
        <ele>2361</ele>
        <time>2022-04-25T09:24:26Z</time>
      </trkpt>
      <trkpt lat="42.88889" lon="0.13121">
        <ele>2367</ele>
        <time>2022-04-25T09:24:22Z</time>
      </trkpt>
      <trkpt lat="42.88884" lon="0.13118">
        <ele>2371</ele>
        <time>2022-04-25T09:24:19Z</time>
      </trkpt>
      <trkpt lat="42.88884" lon="0.1312">
        <ele>2371</ele>
        <time>2022-04-25T09:24:18Z</time>
      </trkpt>
      <trkpt lat="42.88878" lon="0.1312">
        <ele>2375</ele>
        <time>2022-04-25T09:24:14Z</time>
      </trkpt>
      <trkpt lat="42.88876" lon="0.13116">
        <ele>2377</ele>
        <time>2022-04-25T09:24:11Z</time>
      </trkpt>
      <trkpt lat="42.88878" lon="0.13112">
        <ele>2377</ele>
        <time>2022-04-25T09:23:58Z</time>
      </trkpt>
      <trkpt lat="42.88877" lon="0.13109">
        <ele>2378</ele>
        <time>2022-04-25T09:23:56Z</time>
      </trkpt>
      <trkpt lat="42.88872" lon="0.13106">
        <ele>2382</ele>
        <time>2022-04-25T09:23:52Z</time>
      </trkpt>
      <trkpt lat="42.8887" lon="0.13099">
        <ele>2385</ele>
        <time>2022-04-25T09:23:50Z</time>
      </trkpt>
      <trkpt lat="42.88867" lon="0.13096">
        <ele>2388</ele>
        <time>2022-04-25T09:23:49Z</time>
      </trkpt>
      <trkpt lat="42.8886" lon="0.13098">
        <ele>2392</ele>
        <time>2022-04-25T09:23:46Z</time>
      </trkpt>
      <trkpt lat="42.88858" lon="0.13082">
        <ele>2394</ele>
        <time>2022-04-25T09:23:40Z</time>
      </trkpt>
      <trkpt lat="42.88859" lon="0.1308">
        <ele>2394</ele>
        <time>2022-04-25T09:23:33Z</time>
      </trkpt>
      <trkpt lat="42.88859" lon="0.13078">
        <ele>2394</ele>
        <time>2022-04-25T09:23:17Z</time>
      </trkpt>
      <trkpt lat="42.8886" lon="0.13074">
        <ele>2395</ele>
        <time>2022-04-25T09:23:03Z</time>
      </trkpt>
      <trkpt lat="42.88862" lon="0.13068">
        <ele>2395</ele>
        <time>2022-04-25T09:22:51Z</time>
      </trkpt>
      <trkpt lat="42.88862" lon="0.13071">
        <ele>2394</ele>
        <time>2022-04-25T09:22:29Z</time>
      </trkpt>
      <trkpt lat="42.88861" lon="0.1307">
        <ele>2395</ele>
        <time>2022-04-25T09:22:09Z</time>
      </trkpt>
      <trkpt lat="42.88861" lon="0.1307">
        <ele>2395</ele>
        <time>2022-04-25T09:21:46Z</time>
      </trkpt>
      <trkpt lat="42.88861" lon="0.1307">
        <ele>2395</ele>
        <time>2022-04-25T09:21:24Z</time>
      </trkpt>
      <trkpt lat="42.8886" lon="0.13068">
        <ele>2395</ele>
        <time>2022-04-25T09:21:05Z</time>
      </trkpt>
      <trkpt lat="42.8886" lon="0.13069">
        <ele>2395</ele>
        <time>2022-04-25T09:20:47Z</time>
      </trkpt>
      <trkpt lat="42.88861" lon="0.13068">
        <ele>2396</ele>
        <time>2022-04-25T09:20:28Z</time>
      </trkpt>
      <trkpt lat="42.88861" lon="0.13068">
        <ele>2396</ele>
        <time>2022-04-25T09:19:51Z</time>
      </trkpt>
      <trkpt lat="42.8886" lon="0.13069">
        <ele>2395</ele>
        <time>2022-04-25T09:19:18Z</time>
      </trkpt>
      <trkpt lat="42.88861" lon="0.13068">
        <ele>2396</ele>
        <time>2022-04-25T09:18:42Z</time>
      </trkpt>
      <trkpt lat="42.88861" lon="0.13068">
        <ele>2396</ele>
        <time>2022-04-25T09:18:17Z</time>
      </trkpt>
      <trkpt lat="42.88863" lon="0.13065">
        <ele>2395</ele>
        <time>2022-04-25T09:17:56Z</time>
      </trkpt>
      <trkpt lat="42.88861" lon="0.13066">
        <ele>2396</ele>
        <time>2022-04-25T09:17:18Z</time>
      </trkpt>
      <trkpt lat="42.88861" lon="0.13065">
        <ele>2396</ele>
        <time>2022-04-25T09:16:36Z</time>
      </trkpt>
      <trkpt lat="42.88861" lon="0.13066">
        <ele>2396</ele>
        <time>2022-04-25T09:16:00Z</time>
      </trkpt>
      <trkpt lat="42.88859" lon="0.13067">
        <ele>2396</ele>
        <time>2022-04-25T09:15:18Z</time>
      </trkpt>
      <trkpt lat="42.8886" lon="0.13066">
        <ele>2396</ele>
        <time>2022-04-25T09:14:47Z</time>
      </trkpt>
      <trkpt lat="42.88861" lon="0.13066">
        <ele>2396</ele>
        <time>2022-04-25T09:14:16Z</time>
      </trkpt>
      <trkpt lat="42.8886" lon="0.13066">
        <ele>2396</ele>
        <time>2022-04-25T09:13:33Z</time>
      </trkpt>
      <trkpt lat="42.88862" lon="0.13068">
        <ele>2395</ele>
        <time>2022-04-25T09:13:07Z</time>
      </trkpt>
      <trkpt lat="42.88861" lon="0.13067">
        <ele>2396</ele>
        <time>2022-04-25T09:12:24Z</time>
      </trkpt>
      <trkpt lat="42.88861" lon="0.13069">
        <ele>2395</ele>
        <time>2022-04-25T09:12:06Z</time>
      </trkpt>
      <trkpt lat="42.8886" lon="0.13068">
        <ele>2395</ele>
        <time>2022-04-25T09:11:51Z</time>
      </trkpt>
      <trkpt lat="42.88861" lon="0.13068">
        <ele>2396</ele>
        <time>2022-04-25T09:11:35Z</time>
      </trkpt>
      <trkpt lat="42.8886" lon="0.13068">
        <ele>2395</ele>
        <time>2022-04-25T09:11:13Z</time>
      </trkpt>
      <trkpt lat="42.88859" lon="0.13067">
        <ele>2395</ele>
        <time>2022-04-25T09:10:52Z</time>
      </trkpt>
      <trkpt lat="42.88859" lon="0.13069">
        <ele>2395</ele>
        <time>2022-04-25T09:10:31Z</time>
      </trkpt>
      <trkpt lat="42.88859" lon="0.13068">
        <ele>2395</ele>
        <time>2022-04-25T09:10:09Z</time>
      </trkpt>
      <trkpt lat="42.88858" lon="0.13067">
        <ele>2395</ele>
        <time>2022-04-25T09:09:47Z</time>
      </trkpt>
      <trkpt lat="42.88858" lon="0.1307">
        <ele>2395</ele>
        <time>2022-04-25T09:09:30Z</time>
      </trkpt>
      <trkpt lat="42.88858" lon="0.13078">
        <ele>2394</ele>
        <time>2022-04-25T09:09:17Z</time>
      </trkpt>
      <trkpt lat="42.88858" lon="0.13079">
        <ele>2394</ele>
        <time>2022-04-25T09:09:03Z</time>
      </trkpt>
      <trkpt lat="42.88858" lon="0.13079">
        <ele>2394</ele>
        <time>2022-04-25T09:08:40Z</time>
      </trkpt>
      <trkpt lat="42.88857" lon="0.13079">
        <ele>2394</ele>
        <time>2022-04-25T09:08:11Z</time>
      </trkpt>
      <trkpt lat="42.88859" lon="0.13079">
        <ele>2394</ele>
        <time>2022-04-25T09:07:44Z</time>
      </trkpt>
      <trkpt lat="42.88857" lon="0.13078">
        <ele>2394</ele>
        <time>2022-04-25T09:07:22Z</time>
      </trkpt>
      <trkpt lat="42.88856" lon="0.13078">
        <ele>2394</ele>
        <time>2022-04-25T09:07:06Z</time>
      </trkpt>
      <trkpt lat="42.88858" lon="0.13077">
        <ele>2394</ele>
        <time>2022-04-25T09:06:48Z</time>
      </trkpt>
      <trkpt lat="42.88862" lon="0.13065">
        <ele>2396</ele>
        <time>2022-04-25T09:06:35Z</time>
      </trkpt>
      <trkpt lat="42.88863" lon="0.13055">
        <ele>2396</ele>
        <time>2022-04-25T09:06:19Z</time>
      </trkpt>
      <trkpt lat="42.88862" lon="0.13052">
        <ele>2396</ele>
        <time>2022-04-25T09:06:04Z</time>
      </trkpt>
      <trkpt lat="42.88857" lon="0.1304">
        <ele>2396</ele>
        <time>2022-04-25T09:05:50Z</time>
      </trkpt>
      <trkpt lat="42.8885" lon="0.13044">
        <ele>2394</ele>
        <time>2022-04-25T09:05:35Z</time>
      </trkpt>
      <trkpt lat="42.88844" lon="0.13049">
        <ele>2392</ele>
        <time>2022-04-25T09:05:18Z</time>
      </trkpt>
      <trkpt lat="42.8884" lon="0.13057">
        <ele>2392</ele>
        <time>2022-04-25T09:05:00Z</time>
      </trkpt>
      <trkpt lat="42.88839" lon="0.13061">
        <ele>2392</ele>
        <time>2022-04-25T09:04:44Z</time>
      </trkpt>
      <trkpt lat="42.88836" lon="0.13071">
        <ele>2391</ele>
        <time>2022-04-25T09:04:24Z</time>
      </trkpt>
      <trkpt lat="42.8883" lon="0.13078">
        <ele>2390</ele>
        <time>2022-04-25T09:04:08Z</time>
      </trkpt>
      <trkpt lat="42.88827" lon="0.13089">
        <ele>2388</ele>
        <time>2022-04-25T09:03:52Z</time>
      </trkpt>
      <trkpt lat="42.88828" lon="0.13101">
        <ele>2387</ele>
        <time>2022-04-25T09:03:36Z</time>
      </trkpt>
      <trkpt lat="42.88827" lon="0.13107">
        <ele>2386</ele>
        <time>2022-04-25T09:03:17Z</time>
      </trkpt>
      <trkpt lat="42.88826" lon="0.1311">
        <ele>2385</ele>
        <time>2022-04-25T09:03:01Z</time>
      </trkpt>
      <trkpt lat="42.88823" lon="0.13121">
        <ele>2382</ele>
        <time>2022-04-25T09:02:47Z</time>
      </trkpt>
      <trkpt lat="42.88824" lon="0.13136">
        <ele>2380</ele>
        <time>2022-04-25T09:02:28Z</time>
      </trkpt>
      <trkpt lat="42.88828" lon="0.13147">
        <ele>2376</ele>
        <time>2022-04-25T09:02:12Z</time>
      </trkpt>
      <trkpt lat="42.88832" lon="0.13156">
        <ele>2372</ele>
        <time>2022-04-25T09:01:59Z</time>
      </trkpt>
      <trkpt lat="42.88838" lon="0.13164">
        <ele>2369</ele>
        <time>2022-04-25T09:01:44Z</time>
      </trkpt>
      <trkpt lat="42.88831" lon="0.13164">
        <ele>2370</ele>
        <time>2022-04-25T09:01:28Z</time>
      </trkpt>
      <trkpt lat="42.88828" lon="0.13171">
        <ele>2369</ele>
        <time>2022-04-25T09:01:15Z</time>
      </trkpt>
      <trkpt lat="42.88825" lon="0.13173">
        <ele>2370</ele>
        <time>2022-04-25T09:01:03Z</time>
      </trkpt>
      <trkpt lat="42.88824" lon="0.13174">
        <ele>2370</ele>
        <time>2022-04-25T09:00:41Z</time>
      </trkpt>
      <trkpt lat="42.88827" lon="0.13173">
        <ele>2369</ele>
        <time>2022-04-25T09:00:26Z</time>
      </trkpt>
      <trkpt lat="42.88829" lon="0.13179">
        <ele>2366</ele>
        <time>2022-04-25T09:00:14Z</time>
      </trkpt>
      <trkpt lat="42.88831" lon="0.13189">
        <ele>2362</ele>
        <time>2022-04-25T09:00:01Z</time>
      </trkpt>
      <trkpt lat="42.88831" lon="0.13201">
        <ele>2359</ele>
        <time>2022-04-25T08:59:51Z</time>
      </trkpt>
      <trkpt lat="42.88838" lon="0.13209">
        <ele>2355</ele>
        <time>2022-04-25T08:59:34Z</time>
      </trkpt>
      <trkpt lat="42.88845" lon="0.1322">
        <ele>2353</ele>
        <time>2022-04-25T08:59:21Z</time>
      </trkpt>
      <trkpt lat="42.88849" lon="0.13242">
        <ele>2350</ele>
        <time>2022-04-25T08:59:03Z</time>
      </trkpt>
      <trkpt lat="42.88851" lon="0.13247">
        <ele>2350</ele>
        <time>2022-04-25T08:58:47Z</time>
      </trkpt>
      <trkpt lat="42.88857" lon="0.13245">
        <ele>2349</ele>
        <time>2022-04-25T08:58:31Z</time>
      </trkpt>
      <trkpt lat="42.88861" lon="0.13234">
        <ele>2350</ele>
        <time>2022-04-25T08:58:16Z</time>
      </trkpt>
      <trkpt lat="42.88864" lon="0.13237">
        <ele>2348</ele>
        <time>2022-04-25T08:58:01Z</time>
      </trkpt>
      <trkpt lat="42.88869" lon="0.13247">
        <ele>2344</ele>
        <time>2022-04-25T08:57:45Z</time>
      </trkpt>
      <trkpt lat="42.88871" lon="0.1325">
        <ele>2343</ele>
        <time>2022-04-25T08:57:20Z</time>
      </trkpt>
      <trkpt lat="42.88875" lon="0.13256">
        <ele>2342</ele>
        <time>2022-04-25T08:57:07Z</time>
      </trkpt>
      <trkpt lat="42.8888" lon="0.13249">
        <ele>2339</ele>
        <time>2022-04-25T08:56:54Z</time>
      </trkpt>
      <trkpt lat="42.88887" lon="0.1324">
        <ele>2337</ele>
        <time>2022-04-25T08:56:36Z</time>
      </trkpt>
      <trkpt lat="42.8889" lon="0.13228">
        <ele>2336</ele>
        <time>2022-04-25T08:56:18Z</time>
      </trkpt>
      <trkpt lat="42.88894" lon="0.13222">
        <ele>2334</ele>
        <time>2022-04-25T08:56:01Z</time>
      </trkpt>
      <trkpt lat="42.88902" lon="0.13228">
        <ele>2330</ele>
        <time>2022-04-25T08:55:43Z</time>
      </trkpt>
      <trkpt lat="42.88909" lon="0.1322">
        <ele>2327</ele>
        <time>2022-04-25T08:55:27Z</time>
      </trkpt>
      <trkpt lat="42.88914" lon="0.1321">
        <ele>2326</ele>
        <time>2022-04-25T08:55:11Z</time>
      </trkpt>
      <trkpt lat="42.88919" lon="0.13204">
        <ele>2324</ele>
        <time>2022-04-25T08:54:56Z</time>
      </trkpt>
      <trkpt lat="42.88918" lon="0.13206">
        <ele>2325</ele>
        <time>2022-04-25T08:54:40Z</time>
      </trkpt>
      <trkpt lat="42.8892" lon="0.13216">
        <ele>2322</ele>
        <time>2022-04-25T08:54:25Z</time>
      </trkpt>
      <trkpt lat="42.88923" lon="0.13223">
        <ele>2320</ele>
        <time>2022-04-25T08:54:10Z</time>
      </trkpt>
      <trkpt lat="42.88927" lon="0.13216">
        <ele>2318</ele>
        <time>2022-04-25T08:53:58Z</time>
      </trkpt>
      <trkpt lat="42.88932" lon="0.13206">
        <ele>2317</ele>
        <time>2022-04-25T08:53:41Z</time>
      </trkpt>
      <trkpt lat="42.88933" lon="0.13201">
        <ele>2317</ele>
        <time>2022-04-25T08:53:21Z</time>
      </trkpt>
      <trkpt lat="42.88933" lon="0.13199">
        <ele>2317</ele>
        <time>2022-04-25T08:53:03Z</time>
      </trkpt>
      <trkpt lat="42.88935" lon="0.1321">
        <ele>2315</ele>
        <time>2022-04-25T08:52:45Z</time>
      </trkpt>
      <trkpt lat="42.88936" lon="0.1322">
        <ele>2313</ele>
        <time>2022-04-25T08:52:30Z</time>
      </trkpt>
      <trkpt lat="42.88938" lon="0.13229">
        <ele>2312</ele>
        <time>2022-04-25T08:52:17Z</time>
      </trkpt>
      <trkpt lat="42.88941" lon="0.13235">
        <ele>2312</ele>
        <time>2022-04-25T08:52:02Z</time>
      </trkpt>
      <trkpt lat="42.88948" lon="0.13233">
        <ele>2308</ele>
        <time>2022-04-25T08:51:45Z</time>
      </trkpt>
      <trkpt lat="42.88958" lon="0.13223">
        <ele>2302</ele>
        <time>2022-04-25T08:51:25Z</time>
      </trkpt>
      <trkpt lat="42.88965" lon="0.13219">
        <ele>2300</ele>
        <time>2022-04-25T08:51:09Z</time>
      </trkpt>
      <trkpt lat="42.88966" lon="0.13224">
        <ele>2299</ele>
        <time>2022-04-25T08:50:54Z</time>
      </trkpt>
      <trkpt lat="42.88968" lon="0.13232">
        <ele>2298</ele>
        <time>2022-04-25T08:50:31Z</time>
      </trkpt>
      <trkpt lat="42.88971" lon="0.13242">
        <ele>2297</ele>
        <time>2022-04-25T08:50:16Z</time>
      </trkpt>
      <trkpt lat="42.88974" lon="0.13256">
        <ele>2297</ele>
        <time>2022-04-25T08:49:58Z</time>
      </trkpt>
      <trkpt lat="42.88978" lon="0.1326">
        <ele>2296</ele>
        <time>2022-04-25T08:49:37Z</time>
      </trkpt>
      <trkpt lat="42.88979" lon="0.13255">
        <ele>2294</ele>
        <time>2022-04-25T08:49:24Z</time>
      </trkpt>
      <trkpt lat="42.8898" lon="0.13247">
        <ele>2293</ele>
        <time>2022-04-25T08:49:12Z</time>
      </trkpt>
      <trkpt lat="42.88986" lon="0.13256">
        <ele>2291</ele>
        <time>2022-04-25T08:48:54Z</time>
      </trkpt>
      <trkpt lat="42.88996" lon="0.13259">
        <ele>2286</ele>
        <time>2022-04-25T08:48:37Z</time>
      </trkpt>
      <trkpt lat="42.89003" lon="0.13254">
        <ele>2281</ele>
        <time>2022-04-25T08:48:21Z</time>
      </trkpt>
      <trkpt lat="42.89012" lon="0.13251">
        <ele>2277</ele>
        <time>2022-04-25T08:48:01Z</time>
      </trkpt>
      <trkpt lat="42.8902" lon="0.13243">
        <ele>2273</ele>
        <time>2022-04-25T08:47:43Z</time>
      </trkpt>
      <trkpt lat="42.89019" lon="0.1324">
        <ele>2274</ele>
        <time>2022-04-25T08:47:25Z</time>
      </trkpt>
      <trkpt lat="42.89021" lon="0.13246">
        <ele>2273</ele>
        <time>2022-04-25T08:47:09Z</time>
      </trkpt>
      <trkpt lat="42.89026" lon="0.13254">
        <ele>2270</ele>
        <time>2022-04-25T08:46:50Z</time>
      </trkpt>
      <trkpt lat="42.89027" lon="0.13259">
        <ele>2270</ele>
        <time>2022-04-25T08:46:34Z</time>
      </trkpt>
      <trkpt lat="42.8903" lon="0.13259">
        <ele>2268</ele>
        <time>2022-04-25T08:46:21Z</time>
      </trkpt>
      <trkpt lat="42.89037" lon="0.13255">
        <ele>2265</ele>
        <time>2022-04-25T08:46:04Z</time>
      </trkpt>
      <trkpt lat="42.89044" lon="0.13251">
        <ele>2262</ele>
        <time>2022-04-25T08:45:48Z</time>
      </trkpt>
      <trkpt lat="42.89052" lon="0.1325">
        <ele>2260</ele>
        <time>2022-04-25T08:45:32Z</time>
      </trkpt>
      <trkpt lat="42.8906" lon="0.13248">
        <ele>2256</ele>
        <time>2022-04-25T08:45:16Z</time>
      </trkpt>
      <trkpt lat="42.8907" lon="0.13246">
        <ele>2252</ele>
        <time>2022-04-25T08:45:02Z</time>
      </trkpt>
      <trkpt lat="42.89077" lon="0.13241">
        <ele>2251</ele>
        <time>2022-04-25T08:44:46Z</time>
      </trkpt>
      <trkpt lat="42.89078" lon="0.13249">
        <ele>2248</ele>
        <time>2022-04-25T08:44:30Z</time>
      </trkpt>
      <trkpt lat="42.89081" lon="0.13263">
        <ele>2243</ele>
        <time>2022-04-25T08:44:15Z</time>
      </trkpt>
      <trkpt lat="42.89087" lon="0.13259">
        <ele>2241</ele>
        <time>2022-04-25T08:43:59Z</time>
      </trkpt>
      <trkpt lat="42.89096" lon="0.13257">
        <ele>2238</ele>
        <time>2022-04-25T08:43:44Z</time>
      </trkpt>
      <trkpt lat="42.89101" lon="0.13254">
        <ele>2236</ele>
        <time>2022-04-25T08:43:30Z</time>
      </trkpt>
      <trkpt lat="42.89106" lon="0.13245">
        <ele>2237</ele>
        <time>2022-04-25T08:43:15Z</time>
      </trkpt>
      <trkpt lat="42.89115" lon="0.13238">
        <ele>2234</ele>
        <time>2022-04-25T08:42:56Z</time>
      </trkpt>
      <trkpt lat="42.89116" lon="0.13235">
        <ele>2234</ele>
        <time>2022-04-25T08:42:40Z</time>
      </trkpt>
      <trkpt lat="42.89123" lon="0.13241">
        <ele>2230</ele>
        <time>2022-04-25T08:42:26Z</time>
      </trkpt>
      <trkpt lat="42.89129" lon="0.13246">
        <ele>2227</ele>
        <time>2022-04-25T08:42:10Z</time>
      </trkpt>
      <trkpt lat="42.89136" lon="0.13242">
        <ele>2225</ele>
        <time>2022-04-25T08:41:53Z</time>
      </trkpt>
      <trkpt lat="42.89143" lon="0.13235">
        <ele>2224</ele>
        <time>2022-04-25T08:41:40Z</time>
      </trkpt>
      <trkpt lat="42.89147" lon="0.1323">
        <ele>2224</ele>
        <time>2022-04-25T08:41:25Z</time>
      </trkpt>
      <trkpt lat="42.89156" lon="0.13227">
        <ele>2222</ele>
        <time>2022-04-25T08:41:11Z</time>
      </trkpt>
      <trkpt lat="42.89165" lon="0.13221">
        <ele>2221</ele>
        <time>2022-04-25T08:40:56Z</time>
      </trkpt>
      <trkpt lat="42.89173" lon="0.1322">
        <ele>2218</ele>
        <time>2022-04-25T08:40:39Z</time>
      </trkpt>
      <trkpt lat="42.89182" lon="0.13226">
        <ele>2214</ele>
        <time>2022-04-25T08:40:22Z</time>
      </trkpt>
      <trkpt lat="42.8919" lon="0.13232">
        <ele>2211</ele>
        <time>2022-04-25T08:40:07Z</time>
      </trkpt>
      <trkpt lat="42.89202" lon="0.13233">
        <ele>2210</ele>
        <time>2022-04-25T08:39:55Z</time>
      </trkpt>
      <trkpt lat="42.892" lon="0.1323">
        <ele>2211</ele>
        <time>2022-04-25T08:39:33Z</time>
      </trkpt>
      <trkpt lat="42.89199" lon="0.13234">
        <ele>2210</ele>
        <time>2022-04-25T08:39:15Z</time>
      </trkpt>
      <trkpt lat="42.89207" lon="0.13234">
        <ele>2210</ele>
        <time>2022-04-25T08:39:00Z</time>
      </trkpt>
      <trkpt lat="42.89207" lon="0.13232">
        <ele>2211</ele>
        <time>2022-04-25T08:38:42Z</time>
      </trkpt>
      <trkpt lat="42.89206" lon="0.13234">
        <ele>2210</ele>
        <time>2022-04-25T08:38:24Z</time>
      </trkpt>
      <trkpt lat="42.89205" lon="0.13232">
        <ele>2211</ele>
        <time>2022-04-25T08:38:13Z</time>
      </trkpt>
      <trkpt lat="42.89216" lon="0.13229">
        <ele>2212</ele>
        <time>2022-04-25T08:38:00Z</time>
      </trkpt>
      <trkpt lat="42.89229" lon="0.13227">
        <ele>2211</ele>
        <time>2022-04-25T08:37:47Z</time>
      </trkpt>
      <trkpt lat="42.89234" lon="0.13223">
        <ele>2210</ele>
        <time>2022-04-25T08:37:37Z</time>
      </trkpt>
      <trkpt lat="42.89243" lon="0.13222">
        <ele>2208</ele>
        <time>2022-04-25T08:37:21Z</time>
      </trkpt>
      <trkpt lat="42.89248" lon="0.13224">
        <ele>2206</ele>
        <time>2022-04-25T08:37:05Z</time>
      </trkpt>
      <trkpt lat="42.89256" lon="0.13227">
        <ele>2203</ele>
        <time>2022-04-25T08:36:53Z</time>
      </trkpt>
      <trkpt lat="42.89267" lon="0.13227">
        <ele>2200</ele>
        <time>2022-04-25T08:36:38Z</time>
      </trkpt>
      <trkpt lat="42.89274" lon="0.13227">
        <ele>2199</ele>
        <time>2022-04-25T08:36:24Z</time>
      </trkpt>
      <trkpt lat="42.89282" lon="0.13224">
        <ele>2198</ele>
        <time>2022-04-25T08:36:10Z</time>
      </trkpt>
      <trkpt lat="42.89292" lon="0.13215">
        <ele>2196</ele>
        <time>2022-04-25T08:35:56Z</time>
      </trkpt>
      <trkpt lat="42.89293" lon="0.13214">
        <ele>2196</ele>
        <time>2022-04-25T08:35:55Z</time>
      </trkpt>
      <trkpt lat="42.89305" lon="0.13206">
        <ele>2195</ele>
        <time>2022-04-25T08:35:40Z</time>
      </trkpt>
      <trkpt lat="42.89318" lon="0.13198">
        <ele>2193</ele>
        <time>2022-04-25T08:35:25Z</time>
      </trkpt>
      <trkpt lat="42.89328" lon="0.13191">
        <ele>2192</ele>
        <time>2022-04-25T08:35:10Z</time>
      </trkpt>
      <trkpt lat="42.89338" lon="0.13187">
        <ele>2190</ele>
        <time>2022-04-25T08:34:55Z</time>
      </trkpt>
      <trkpt lat="42.89348" lon="0.13184">
        <ele>2187</ele>
        <time>2022-04-25T08:34:39Z</time>
      </trkpt>
      <trkpt lat="42.89359" lon="0.13177">
        <ele>2186</ele>
        <time>2022-04-25T08:34:22Z</time>
      </trkpt>
      <trkpt lat="42.89364" lon="0.13175">
        <ele>2184</ele>
        <time>2022-04-25T08:34:12Z</time>
      </trkpt>
      <trkpt lat="42.89373" lon="0.13173">
        <ele>2181</ele>
        <time>2022-04-25T08:33:55Z</time>
      </trkpt>
      <trkpt lat="42.89381" lon="0.1317">
        <ele>2178</ele>
        <time>2022-04-25T08:33:38Z</time>
      </trkpt>
      <trkpt lat="42.8939" lon="0.13161">
        <ele>2178</ele>
        <time>2022-04-25T08:33:23Z</time>
      </trkpt>
      <trkpt lat="42.89404" lon="0.13155">
        <ele>2176</ele>
        <time>2022-04-25T08:33:04Z</time>
      </trkpt>
      <trkpt lat="42.89413" lon="0.13154">
        <ele>2174</ele>
        <time>2022-04-25T08:32:47Z</time>
      </trkpt>
      <trkpt lat="42.8942" lon="0.13157">
        <ele>2171</ele>
        <time>2022-04-25T08:32:32Z</time>
      </trkpt>
      <trkpt lat="42.89422" lon="0.13158">
        <ele>2171</ele>
        <time>2022-04-25T08:32:24Z</time>
      </trkpt>
      <trkpt lat="42.89431" lon="0.13163">
        <ele>2169</ele>
        <time>2022-04-25T08:32:09Z</time>
      </trkpt>
      <trkpt lat="42.89431" lon="0.13163">
        <ele>2169</ele>
        <time>2022-04-25T08:31:50Z</time>
      </trkpt>
      <trkpt lat="42.89431" lon="0.13166">
        <ele>2167</ele>
        <time>2022-04-25T08:31:33Z</time>
      </trkpt>
      <trkpt lat="42.89435" lon="0.13163">
        <ele>2169</ele>
        <time>2022-04-25T08:31:17Z</time>
      </trkpt>
      <trkpt lat="42.89427" lon="0.13172">
        <ele>2165</ele>
        <time>2022-04-25T08:30:59Z</time>
      </trkpt>
      <trkpt lat="42.89424" lon="0.13182">
        <ele>2161</ele>
        <time>2022-04-25T08:30:46Z</time>
      </trkpt>
      <trkpt lat="42.89422" lon="0.1319">
        <ele>2159</ele>
        <time>2022-04-25T08:30:28Z</time>
      </trkpt>
      <trkpt lat="42.89421" lon="0.13196">
        <ele>2156</ele>
        <time>2022-04-25T08:30:16Z</time>
      </trkpt>
      <trkpt lat="42.89427" lon="0.13198">
        <ele>2155</ele>
        <time>2022-04-25T08:29:59Z</time>
      </trkpt>
      <trkpt lat="42.89434" lon="0.13202">
        <ele>2152</ele>
        <time>2022-04-25T08:29:43Z</time>
      </trkpt>
      <trkpt lat="42.89443" lon="0.13197">
        <ele>2154</ele>
        <time>2022-04-25T08:29:27Z</time>
      </trkpt>
      <trkpt lat="42.89439" lon="0.13208">
        <ele>2150</ele>
        <time>2022-04-25T08:29:09Z</time>
      </trkpt>
      <trkpt lat="42.89436" lon="0.13212">
        <ele>2148</ele>
        <time>2022-04-25T08:28:57Z</time>
      </trkpt>
      <trkpt lat="42.89445" lon="0.13217">
        <ele>2145</ele>
        <time>2022-04-25T08:28:41Z</time>
      </trkpt>
      <trkpt lat="42.89446" lon="0.13225">
        <ele>2142</ele>
        <time>2022-04-25T08:28:25Z</time>
      </trkpt>
      <trkpt lat="42.89452" lon="0.13228">
        <ele>2141</ele>
        <time>2022-04-25T08:28:13Z</time>
      </trkpt>
      <trkpt lat="42.8946" lon="0.13239">
        <ele>2137</ele>
        <time>2022-04-25T08:27:53Z</time>
      </trkpt>
      <trkpt lat="42.89466" lon="0.1325">
        <ele>2133</ele>
        <time>2022-04-25T08:27:34Z</time>
      </trkpt>
      <trkpt lat="42.89467" lon="0.13251">
        <ele>2133</ele>
        <time>2022-04-25T08:27:20Z</time>
      </trkpt>
      <trkpt lat="42.89462" lon="0.13253">
        <ele>2132</ele>
        <time>2022-04-25T08:27:08Z</time>
      </trkpt>
      <trkpt lat="42.89459" lon="0.13257">
        <ele>2130</ele>
        <time>2022-04-25T08:27:02Z</time>
      </trkpt>
      <trkpt lat="42.89458" lon="0.13261">
        <ele>2129</ele>
        <time>2022-04-25T08:26:41Z</time>
      </trkpt>
      <trkpt lat="42.89452" lon="0.13265">
        <ele>2127</ele>
        <time>2022-04-25T08:26:25Z</time>
      </trkpt>
      <trkpt lat="42.89452" lon="0.13266">
        <ele>2127</ele>
        <time>2022-04-25T08:26:24Z</time>
      </trkpt>
      <trkpt lat="42.89456" lon="0.13275">
        <ele>2123</ele>
        <time>2022-04-25T08:26:10Z</time>
      </trkpt>
      <trkpt lat="42.89459" lon="0.13278">
        <ele>2122</ele>
        <time>2022-04-25T08:26:04Z</time>
      </trkpt>
      <trkpt lat="42.8947" lon="0.13281">
        <ele>2120</ele>
        <time>2022-04-25T08:25:46Z</time>
      </trkpt>
      <trkpt lat="42.8947" lon="0.1329">
        <ele>2117</ele>
        <time>2022-04-25T08:25:32Z</time>
      </trkpt>
      <trkpt lat="42.89467" lon="0.133">
        <ele>2114</ele>
        <time>2022-04-25T08:25:21Z</time>
      </trkpt>
      <trkpt lat="42.89463" lon="0.13305">
        <ele>2114</ele>
        <time>2022-04-25T08:25:05Z</time>
      </trkpt>
      <trkpt lat="42.89462" lon="0.13302">
        <ele>2114</ele>
        <time>2022-04-25T08:24:53Z</time>
      </trkpt>
      <trkpt lat="42.89462" lon="0.13303">
        <ele>2114</ele>
        <time>2022-04-25T08:24:23Z</time>
      </trkpt>
      <trkpt lat="42.89462" lon="0.13303">
        <ele>2114</ele>
        <time>2022-04-25T08:23:51Z</time>
      </trkpt>
      <trkpt lat="42.89465" lon="0.13305">
        <ele>2113</ele>
        <time>2022-04-25T08:23:14Z</time>
      </trkpt>
      <trkpt lat="42.89463" lon="0.13302">
        <ele>2114</ele>
        <time>2022-04-25T08:22:47Z</time>
      </trkpt>
      <trkpt lat="42.89463" lon="0.13301">
        <ele>2115</ele>
        <time>2022-04-25T08:22:27Z</time>
      </trkpt>
      <trkpt lat="42.89464" lon="0.13303">
        <ele>2114</ele>
        <time>2022-04-25T08:21:57Z</time>
      </trkpt>
      <trkpt lat="42.89465" lon="0.13303">
        <ele>2114</ele>
        <time>2022-04-25T08:21:19Z</time>
      </trkpt>
      <trkpt lat="42.89465" lon="0.13303">
        <ele>2114</ele>
        <time>2022-04-25T08:20:51Z</time>
      </trkpt>
      <trkpt lat="42.89463" lon="0.13306">
        <ele>2113</ele>
        <time>2022-04-25T08:20:47Z</time>
      </trkpt>
      <trkpt lat="42.89465" lon="0.13307">
        <ele>2113</ele>
        <time>2022-04-25T08:20:36Z</time>
      </trkpt>
      <trkpt lat="42.89462" lon="0.1332">
        <ele>2111</ele>
        <time>2022-04-25T08:20:20Z</time>
      </trkpt>
      <trkpt lat="42.89463" lon="0.13314">
        <ele>2112</ele>
        <time>2022-04-25T08:20:03Z</time>
      </trkpt>
      <trkpt lat="42.89469" lon="0.13311">
        <ele>2111</ele>
        <time>2022-04-25T08:19:49Z</time>
      </trkpt>
      <trkpt lat="42.89467" lon="0.13323">
        <ele>2110</ele>
        <time>2022-04-25T08:19:32Z</time>
      </trkpt>
      <trkpt lat="42.89474" lon="0.13328">
        <ele>2108</ele>
        <time>2022-04-25T08:19:15Z</time>
      </trkpt>
      <trkpt lat="42.89482" lon="0.13328">
        <ele>2106</ele>
        <time>2022-04-25T08:19:00Z</time>
      </trkpt>
      <trkpt lat="42.89488" lon="0.13326">
        <ele>2105</ele>
        <time>2022-04-25T08:18:45Z</time>
      </trkpt>
      <trkpt lat="42.89496" lon="0.13326">
        <ele>2104</ele>
        <time>2022-04-25T08:18:27Z</time>
      </trkpt>
      <trkpt lat="42.89507" lon="0.1333">
        <ele>2101</ele>
        <time>2022-04-25T08:18:08Z</time>
      </trkpt>
      <trkpt lat="42.89511" lon="0.13332">
        <ele>2099</ele>
        <time>2022-04-25T08:17:52Z</time>
      </trkpt>
      <trkpt lat="42.89512" lon="0.13346">
        <ele>2097</ele>
        <time>2022-04-25T08:17:36Z</time>
      </trkpt>
      <trkpt lat="42.8952" lon="0.13357">
        <ele>2095</ele>
        <time>2022-04-25T08:17:21Z</time>
      </trkpt>
      <trkpt lat="42.89528" lon="0.13368">
        <ele>2092</ele>
        <time>2022-04-25T08:17:05Z</time>
      </trkpt>
      <trkpt lat="42.89539" lon="0.13371">
        <ele>2090</ele>
        <time>2022-04-25T08:16:50Z</time>
      </trkpt>
      <trkpt lat="42.89547" lon="0.13375">
        <ele>2088</ele>
        <time>2022-04-25T08:16:33Z</time>
      </trkpt>
      <trkpt lat="42.89553" lon="0.13375">
        <ele>2087</ele>
        <time>2022-04-25T08:16:19Z</time>
      </trkpt>
      <trkpt lat="42.8956" lon="0.13377">
        <ele>2086</ele>
        <time>2022-04-25T08:16:04Z</time>
      </trkpt>
      <trkpt lat="42.89568" lon="0.13375">
        <ele>2085</ele>
        <time>2022-04-25T08:15:49Z</time>
      </trkpt>
      <trkpt lat="42.89571" lon="0.13374">
        <ele>2084</ele>
        <time>2022-04-25T08:15:42Z</time>
      </trkpt>
      <trkpt lat="42.8958" lon="0.13377">
        <ele>2082</ele>
        <time>2022-04-25T08:15:27Z</time>
      </trkpt>
      <trkpt lat="42.89588" lon="0.13383">
        <ele>2080</ele>
        <time>2022-04-25T08:15:11Z</time>
      </trkpt>
      <trkpt lat="42.89599" lon="0.13386">
        <ele>2077</ele>
        <time>2022-04-25T08:14:54Z</time>
      </trkpt>
      <trkpt lat="42.8961" lon="0.13393">
        <ele>2074</ele>
        <time>2022-04-25T08:14:39Z</time>
      </trkpt>
      <trkpt lat="42.89619" lon="0.13399">
        <ele>2072</ele>
        <time>2022-04-25T08:14:23Z</time>
      </trkpt>
      <trkpt lat="42.89627" lon="0.13401">
        <ele>2071</ele>
        <time>2022-04-25T08:14:09Z</time>
      </trkpt>
      <trkpt lat="42.89638" lon="0.134">
        <ele>2070</ele>
        <time>2022-04-25T08:13:56Z</time>
      </trkpt>
      <trkpt lat="42.8964" lon="0.13405">
        <ele>2069</ele>
        <time>2022-04-25T08:13:38Z</time>
      </trkpt>
      <trkpt lat="42.89646" lon="0.1341">
        <ele>2069</ele>
        <time>2022-04-25T08:13:24Z</time>
      </trkpt>
      <trkpt lat="42.89658" lon="0.13414">
        <ele>2067</ele>
        <time>2022-04-25T08:13:10Z</time>
      </trkpt>
      <trkpt lat="42.89669" lon="0.13411">
        <ele>2065</ele>
        <time>2022-04-25T08:12:55Z</time>
      </trkpt>
      <trkpt lat="42.89679" lon="0.13414">
        <ele>2063</ele>
        <time>2022-04-25T08:12:39Z</time>
      </trkpt>
      <trkpt lat="42.89688" lon="0.13415">
        <ele>2062</ele>
        <time>2022-04-25T08:12:22Z</time>
      </trkpt>
      <trkpt lat="42.89696" lon="0.13422">
        <ele>2060</ele>
        <time>2022-04-25T08:12:06Z</time>
      </trkpt>
      <trkpt lat="42.89697" lon="0.13419">
        <ele>2060</ele>
        <time>2022-04-25T08:11:46Z</time>
      </trkpt>
      <trkpt lat="42.89694" lon="0.13423">
        <ele>2061</ele>
        <time>2022-04-25T08:11:22Z</time>
      </trkpt>
      <trkpt lat="42.89701" lon="0.13441">
        <ele>2058</ele>
        <time>2022-04-25T08:10:55Z</time>
      </trkpt>
      <trkpt lat="42.89699" lon="0.13431">
        <ele>2059</ele>
        <time>2022-04-25T08:10:34Z</time>
      </trkpt>
      <trkpt lat="42.89699" lon="0.13423">
        <ele>2059</ele>
        <time>2022-04-25T08:10:04Z</time>
      </trkpt>
      <trkpt lat="42.89696" lon="0.13427">
        <ele>2060</ele>
        <time>2022-04-25T08:09:26Z</time>
      </trkpt>
      <trkpt lat="42.89697" lon="0.1342">
        <ele>2060</ele>
        <time>2022-04-25T08:09:09Z</time>
      </trkpt>
      <trkpt lat="42.89698" lon="0.13426">
        <ele>2060</ele>
        <time>2022-04-25T08:08:46Z</time>
      </trkpt>
      <trkpt lat="42.89699" lon="0.13426">
        <ele>2059</ele>
        <time>2022-04-25T08:08:33Z</time>
      </trkpt>
      <trkpt lat="42.89708" lon="0.13428">
        <ele>2057</ele>
        <time>2022-04-25T08:08:15Z</time>
      </trkpt>
      <trkpt lat="42.89716" lon="0.13428">
        <ele>2056</ele>
        <time>2022-04-25T08:08:00Z</time>
      </trkpt>
      <trkpt lat="42.89725" lon="0.13429">
        <ele>2054</ele>
        <time>2022-04-25T08:07:46Z</time>
      </trkpt>
      <trkpt lat="42.89735" lon="0.13423">
        <ele>2051</ele>
        <time>2022-04-25T08:07:29Z</time>
      </trkpt>
      <trkpt lat="42.8974" lon="0.13425">
        <ele>2050</ele>
        <time>2022-04-25T08:07:13Z</time>
      </trkpt>
      <trkpt lat="42.89748" lon="0.13433">
        <ele>2050</ele>
        <time>2022-04-25T08:06:57Z</time>
      </trkpt>
      <trkpt lat="42.89757" lon="0.13437">
        <ele>2048</ele>
        <time>2022-04-25T08:06:40Z</time>
      </trkpt>
      <trkpt lat="42.89767" lon="0.13431">
        <ele>2044</ele>
        <time>2022-04-25T08:06:24Z</time>
      </trkpt>
      <trkpt lat="42.89767" lon="0.13419">
        <ele>2042</ele>
        <time>2022-04-25T08:06:11Z</time>
      </trkpt>
      <trkpt lat="42.89766" lon="0.13411">
        <ele>2041</ele>
        <time>2022-04-25T08:05:58Z</time>
      </trkpt>
      <trkpt lat="42.89771" lon="0.13407">
        <ele>2038</ele>
        <time>2022-04-25T08:05:45Z</time>
      </trkpt>
      <trkpt lat="42.89784" lon="0.13416">
        <ele>2036</ele>
        <time>2022-04-25T08:05:30Z</time>
      </trkpt>
      <trkpt lat="42.89793" lon="0.13419">
        <ele>2034</ele>
        <time>2022-04-25T08:05:15Z</time>
      </trkpt>
      <trkpt lat="42.89799" lon="0.13413">
        <ele>2031</ele>
        <time>2022-04-25T08:05:00Z</time>
      </trkpt>
      <trkpt lat="42.89799" lon="0.13401">
        <ele>2029</ele>
        <time>2022-04-25T08:04:47Z</time>
      </trkpt>
      <trkpt lat="42.89799" lon="0.1339">
        <ele>2027</ele>
        <time>2022-04-25T08:04:32Z</time>
      </trkpt>
      <trkpt lat="42.89799" lon="0.1339">
        <ele>2027</ele>
        <time>2022-04-25T08:04:31Z</time>
      </trkpt>
      <trkpt lat="42.89797" lon="0.13379">
        <ele>2025</ele>
        <time>2022-04-25T08:04:16Z</time>
      </trkpt>
      <trkpt lat="42.89797" lon="0.1337">
        <ele>2023</ele>
        <time>2022-04-25T08:03:57Z</time>
      </trkpt>
      <trkpt lat="42.89795" lon="0.13367">
        <ele>2023</ele>
        <time>2022-04-25T08:03:44Z</time>
      </trkpt>
      <trkpt lat="42.89793" lon="0.13356">
        <ele>2021</ele>
        <time>2022-04-25T08:03:31Z</time>
      </trkpt>
      <trkpt lat="42.89792" lon="0.13345">
        <ele>2019</ele>
        <time>2022-04-25T08:03:15Z</time>
      </trkpt>
      <trkpt lat="42.89796" lon="0.13335">
        <ele>2015</ele>
        <time>2022-04-25T08:02:57Z</time>
      </trkpt>
      <trkpt lat="42.89805" lon="0.13335">
        <ele>2011</ele>
        <time>2022-04-25T08:02:42Z</time>
      </trkpt>
      <trkpt lat="42.89812" lon="0.13338">
        <ele>2009</ele>
        <time>2022-04-25T08:02:23Z</time>
      </trkpt>
      <trkpt lat="42.8982" lon="0.13346">
        <ele>2009</ele>
        <time>2022-04-25T08:02:03Z</time>
      </trkpt>
      <trkpt lat="42.89824" lon="0.13349">
        <ele>2008</ele>
        <time>2022-04-25T08:01:50Z</time>
      </trkpt>
      <trkpt lat="42.89829" lon="0.13341">
        <ele>2005</ele>
        <time>2022-04-25T08:01:33Z</time>
      </trkpt>
      <trkpt lat="42.89835" lon="0.13332">
        <ele>2001</ele>
        <time>2022-04-25T08:01:17Z</time>
      </trkpt>
      <trkpt lat="42.8984" lon="0.13324">
        <ele>1998</ele>
        <time>2022-04-25T08:01:02Z</time>
      </trkpt>
      <trkpt lat="42.8984" lon="0.13324">
        <ele>1998</ele>
        <time>2022-04-25T08:01:01Z</time>
      </trkpt>
      <trkpt lat="42.89843" lon="0.13324">
        <ele>1997</ele>
        <time>2022-04-25T08:00:53Z</time>
      </trkpt>
      <trkpt lat="42.89853" lon="0.13329">
        <ele>1991</ele>
        <time>2022-04-25T08:00:34Z</time>
      </trkpt>
      <trkpt lat="42.89854" lon="0.13319">
        <ele>1990</ele>
        <time>2022-04-25T08:00:20Z</time>
      </trkpt>
      <trkpt lat="42.89852" lon="0.13309">
        <ele>1991</ele>
        <time>2022-04-25T08:00:06Z</time>
      </trkpt>
      <trkpt lat="42.89854" lon="0.13313">
        <ele>1990</ele>
        <time>2022-04-25T07:59:51Z</time>
      </trkpt>
      <trkpt lat="42.89862" lon="0.13319">
        <ele>1986</ele>
        <time>2022-04-25T07:59:37Z</time>
      </trkpt>
      <trkpt lat="42.89871" lon="0.13321">
        <ele>1982</ele>
        <time>2022-04-25T07:59:19Z</time>
      </trkpt>
      <trkpt lat="42.89877" lon="0.13314">
        <ele>1979</ele>
        <time>2022-04-25T07:59:05Z</time>
      </trkpt>
      <trkpt lat="42.89884" lon="0.13303">
        <ele>1976</ele>
        <time>2022-04-25T07:58:46Z</time>
      </trkpt>
      <trkpt lat="42.89886" lon="0.133">
        <ele>1975</ele>
        <time>2022-04-25T07:58:38Z</time>
      </trkpt>
      <trkpt lat="42.89891" lon="0.1329">
        <ele>1973</ele>
        <time>2022-04-25T07:58:19Z</time>
      </trkpt>
      <trkpt lat="42.89898" lon="0.13283">
        <ele>1970</ele>
        <time>2022-04-25T07:58:04Z</time>
      </trkpt>
      <trkpt lat="42.899" lon="0.1328">
        <ele>1969</ele>
        <time>2022-04-25T07:58:01Z</time>
      </trkpt>
      <trkpt lat="42.89912" lon="0.13269">
        <ele>1965</ele>
        <time>2022-04-25T07:57:42Z</time>
      </trkpt>
      <trkpt lat="42.89917" lon="0.13265">
        <ele>1963</ele>
        <time>2022-04-25T07:57:27Z</time>
      </trkpt>
      <trkpt lat="42.89921" lon="0.13261">
        <ele>1962</ele>
        <time>2022-04-25T07:57:12Z</time>
      </trkpt>
      <trkpt lat="42.89925" lon="0.13262">
        <ele>1961</ele>
        <time>2022-04-25T07:57:00Z</time>
      </trkpt>
      <trkpt lat="42.89926" lon="0.13262">
        <ele>1961</ele>
        <time>2022-04-25T07:56:34Z</time>
      </trkpt>
      <trkpt lat="42.89932" lon="0.13257">
        <ele>1958</ele>
        <time>2022-04-25T07:56:22Z</time>
      </trkpt>
      <trkpt lat="42.89932" lon="0.1325">
        <ele>1958</ele>
        <time>2022-04-25T07:56:04Z</time>
      </trkpt>
      <trkpt lat="42.89937" lon="0.13239">
        <ele>1956</ele>
        <time>2022-04-25T07:55:51Z</time>
      </trkpt>
      <trkpt lat="42.89939" lon="0.13232">
        <ele>1955</ele>
        <time>2022-04-25T07:55:35Z</time>
      </trkpt>
      <trkpt lat="42.89944" lon="0.1323">
        <ele>1953</ele>
        <time>2022-04-25T07:55:17Z</time>
      </trkpt>
      <trkpt lat="42.89944" lon="0.13227">
        <ele>1953</ele>
        <time>2022-04-25T07:55:03Z</time>
      </trkpt>
      <trkpt lat="42.8995" lon="0.13222">
        <ele>1951</ele>
        <time>2022-04-25T07:54:48Z</time>
      </trkpt>
      <trkpt lat="42.89955" lon="0.13214">
        <ele>1949</ele>
        <time>2022-04-25T07:54:36Z</time>
      </trkpt>
      <trkpt lat="42.89962" lon="0.13209">
        <ele>1946</ele>
        <time>2022-04-25T07:54:19Z</time>
      </trkpt>
      <trkpt lat="42.89966" lon="0.13205">
        <ele>1944</ele>
        <time>2022-04-25T07:54:06Z</time>
      </trkpt>
      <trkpt lat="42.8997" lon="0.13207">
        <ele>1943</ele>
        <time>2022-04-25T07:53:54Z</time>
      </trkpt>
      <trkpt lat="42.89971" lon="0.13212">
        <ele>1943</ele>
        <time>2022-04-25T07:53:31Z</time>
      </trkpt>
      <trkpt lat="42.89981" lon="0.13207">
        <ele>1938</ele>
        <time>2022-04-25T07:53:17Z</time>
      </trkpt>
      <trkpt lat="42.89981" lon="0.13186">
        <ele>1937</ele>
        <time>2022-04-25T07:53:02Z</time>
      </trkpt>
      <trkpt lat="42.89983" lon="0.13173">
        <ele>1936</ele>
        <time>2022-04-25T07:52:45Z</time>
      </trkpt>
      <trkpt lat="42.89987" lon="0.1316">
        <ele>1933</ele>
        <time>2022-04-25T07:52:26Z</time>
      </trkpt>
      <trkpt lat="42.89989" lon="0.13148">
        <ele>1930</ele>
        <time>2022-04-25T07:52:11Z</time>
      </trkpt>
      <trkpt lat="42.89992" lon="0.13132">
        <ele>1927</ele>
        <time>2022-04-25T07:51:57Z</time>
      </trkpt>
      <trkpt lat="42.89998" lon="0.13123">
        <ele>1923</ele>
        <time>2022-04-25T07:51:41Z</time>
      </trkpt>
      <trkpt lat="42.89998" lon="0.13121">
        <ele>1922</ele>
        <time>2022-04-25T07:51:27Z</time>
      </trkpt>
      <trkpt lat="42.9" lon="0.13134">
        <ele>1923</ele>
        <time>2022-04-25T07:51:09Z</time>
      </trkpt>
      <trkpt lat="42.90004" lon="0.13146">
        <ele>1921</ele>
        <time>2022-04-25T07:50:54Z</time>
      </trkpt>
      <trkpt lat="42.90006" lon="0.13151">
        <ele>1920</ele>
        <time>2022-04-25T07:50:42Z</time>
      </trkpt>
      <trkpt lat="42.90008" lon="0.13144">
        <ele>1918</ele>
        <time>2022-04-25T07:50:29Z</time>
      </trkpt>
      <trkpt lat="42.90008" lon="0.13134">
        <ele>1917</ele>
        <time>2022-04-25T07:50:16Z</time>
      </trkpt>
      <trkpt lat="42.90013" lon="0.13121">
        <ele>1913</ele>
        <time>2022-04-25T07:50:02Z</time>
      </trkpt>
      <trkpt lat="42.90017" lon="0.13119">
        <ele>1910</ele>
        <time>2022-04-25T07:49:50Z</time>
      </trkpt>
      <trkpt lat="42.9002" lon="0.13119">
        <ele>1908</ele>
        <time>2022-04-25T07:49:36Z</time>
      </trkpt>
      <trkpt lat="42.90023" lon="0.13128">
        <ele>1907</ele>
        <time>2022-04-25T07:49:20Z</time>
      </trkpt>
      <trkpt lat="42.90024" lon="0.13135">
        <ele>1907</ele>
        <time>2022-04-25T07:49:14Z</time>
      </trkpt>
      <trkpt lat="42.90024" lon="0.13137">
        <ele>1907</ele>
        <time>2022-04-25T07:49:12Z</time>
      </trkpt>
      <trkpt lat="42.90026" lon="0.13137">
        <ele>1906</ele>
        <time>2022-04-25T07:48:52Z</time>
      </trkpt>
      <trkpt lat="42.90022" lon="0.13128">
        <ele>1908</ele>
        <time>2022-04-25T07:48:35Z</time>
      </trkpt>
      <trkpt lat="42.90025" lon="0.13115">
        <ele>1904</ele>
        <time>2022-04-25T07:48:20Z</time>
      </trkpt>
      <trkpt lat="42.90029" lon="0.13104">
        <ele>1901</ele>
        <time>2022-04-25T07:48:06Z</time>
      </trkpt>
      <trkpt lat="42.90031" lon="0.13093">
        <ele>1899</ele>
        <time>2022-04-25T07:47:51Z</time>
      </trkpt>
      <trkpt lat="42.90043" lon="0.13081">
        <ele>1891</ele>
        <time>2022-04-25T07:47:36Z</time>
      </trkpt>
      <trkpt lat="42.90042" lon="0.13083">
        <ele>1892</ele>
        <time>2022-04-25T07:47:15Z</time>
      </trkpt>
      <trkpt lat="42.90044" lon="0.13092">
        <ele>1891</ele>
        <time>2022-04-25T07:46:55Z</time>
      </trkpt>
      <trkpt lat="42.90046" lon="0.13104">
        <ele>1891</ele>
        <time>2022-04-25T07:46:39Z</time>
      </trkpt>
      <trkpt lat="42.90051" lon="0.13116">
        <ele>1889</ele>
        <time>2022-04-25T07:46:22Z</time>
      </trkpt>
      <trkpt lat="42.90055" lon="0.13123">
        <ele>1887</ele>
        <time>2022-04-25T07:46:04Z</time>
      </trkpt>
      <trkpt lat="42.90056" lon="0.1313">
        <ele>1888</ele>
        <time>2022-04-25T07:45:44Z</time>
      </trkpt>
      <trkpt lat="42.90058" lon="0.13112">
        <ele>1884</ele>
        <time>2022-04-25T07:45:29Z</time>
      </trkpt>
      <trkpt lat="42.90059" lon="0.13106">
        <ele>1883</ele>
        <time>2022-04-25T07:45:20Z</time>
      </trkpt>
      <trkpt lat="42.9006" lon="0.13093">
        <ele>1882</ele>
        <time>2022-04-25T07:45:05Z</time>
      </trkpt>
      <trkpt lat="42.9006" lon="0.13063">
        <ele>1881</ele>
        <time>2022-04-25T07:44:51Z</time>
      </trkpt>
      <trkpt lat="42.90062" lon="0.13065">
        <ele>1880</ele>
        <time>2022-04-25T07:44:50Z</time>
      </trkpt>
      <trkpt lat="42.90093" lon="0.1307">
        <ele>1865</ele>
        <time>2015-05-08T08:00:36Z</time>
      </trkpt>
      <trkpt lat="42.901" lon="0.13069">
        <ele>1861</ele>
        <time>2015-05-08T08:00:38Z</time>
      </trkpt>
      <trkpt lat="42.901" lon="0.13067">
        <ele>1861</ele>
        <time>2015-05-08T08:00:39Z</time>
      </trkpt>
      <trkpt lat="42.90092" lon="0.13062">
        <ele>1865</ele>
        <time>2015-05-08T08:00:53Z</time>
      </trkpt>
      <trkpt lat="42.9009" lon="0.13069">
        <ele>1867</ele>
        <time>2015-05-08T08:01:08Z</time>
      </trkpt>
      <trkpt lat="42.90098" lon="0.13066">
        <ele>1862</ele>
        <time>2015-05-08T08:01:12Z</time>
      </trkpt>
      <trkpt lat="42.90113" lon="0.1307">
        <ele>1853</ele>
        <time>2015-05-08T08:01:16Z</time>
      </trkpt>
      <trkpt lat="42.90121" lon="0.13074">
        <ele>1848</ele>
        <time>2015-05-08T08:01:18Z</time>
      </trkpt>
      <trkpt lat="42.90132" lon="0.13075">
        <ele>1842</ele>
        <time>2015-05-08T08:01:20Z</time>
      </trkpt>
      <trkpt lat="42.90138" lon="0.13072">
        <ele>1839</ele>
        <time>2015-05-08T08:01:21Z</time>
      </trkpt>
      <trkpt lat="42.90148" lon="0.13071">
        <ele>1837</ele>
        <time>2015-05-08T08:01:23Z</time>
      </trkpt>
      <trkpt lat="42.90159" lon="0.13067">
        <ele>1835</ele>
        <time>2015-05-08T08:01:25Z</time>
      </trkpt>
      <trkpt lat="42.90165" lon="0.13068">
        <ele>1834</ele>
        <time>2015-05-08T08:01:26Z</time>
      </trkpt>
      <trkpt lat="42.90176" lon="0.13071">
        <ele>1834</ele>
        <time>2015-05-08T08:01:28Z</time>
      </trkpt>
      <trkpt lat="42.90188" lon="0.13076">
        <ele>1834</ele>
        <time>2015-05-08T08:01:31Z</time>
      </trkpt>
      <trkpt lat="42.90205" lon="0.13084">
        <ele>1833</ele>
        <time>2015-05-08T08:01:37Z</time>
      </trkpt>
      <trkpt lat="42.90217" lon="0.13083">
        <ele>1832</ele>
        <time>2015-05-08T08:01:43Z</time>
      </trkpt>
      <trkpt lat="42.90245" lon="0.13082">
        <ele>1830</ele>
        <time>2015-05-08T08:01:55Z</time>
      </trkpt>
      <trkpt lat="42.90248" lon="0.13083">
        <ele>1829</ele>
        <time>2015-05-08T08:01:58Z</time>
      </trkpt>
      <trkpt lat="42.90257" lon="0.1309">
        <ele>1828</ele>
        <time>2015-05-08T08:02:06Z</time>
      </trkpt>
      <trkpt lat="42.90266" lon="0.13096">
        <ele>1827</ele>
        <time>2015-05-08T08:02:21Z</time>
      </trkpt>
      <trkpt lat="42.90264" lon="0.13099">
        <ele>1828</ele>
        <time>2015-05-08T08:02:42Z</time>
      </trkpt>
      <trkpt lat="42.90263" lon="0.13097">
        <ele>1828</ele>
        <time>2015-05-08T08:03:18Z</time>
      </trkpt>
      <trkpt lat="42.90265" lon="0.13098">
        <ele>1828</ele>
        <time>2015-05-08T08:03:28Z</time>
      </trkpt>
      <trkpt lat="42.90281" lon="0.13089">
        <ele>1825</ele>
        <time>2015-05-08T08:03:36Z</time>
      </trkpt>
      <trkpt lat="42.903" lon="0.13098">
        <ele>1820</ele>
        <time>2015-05-08T08:03:43Z</time>
      </trkpt>
      <trkpt lat="42.90302" lon="0.13097">
        <ele>1819</ele>
        <time>2015-05-08T08:03:52Z</time>
      </trkpt>
      <trkpt lat="42.90299" lon="0.13101">
        <ele>1820</ele>
        <time>2015-05-08T08:04:22Z</time>
      </trkpt>
      <trkpt lat="42.903" lon="0.13101">
        <ele>1820</ele>
        <time>2015-05-08T08:04:44Z</time>
      </trkpt>
      <trkpt lat="42.90301" lon="0.131">
        <ele>1819</ele>
        <time>2015-05-08T08:05:13Z</time>
      </trkpt>
      <trkpt lat="42.90301" lon="0.13098">
        <ele>1819</ele>
        <time>2015-05-08T08:05:37Z</time>
      </trkpt>
      <trkpt lat="42.90301" lon="0.13099">
        <ele>1819</ele>
        <time>2015-05-08T08:06:09Z</time>
      </trkpt>
      <trkpt lat="42.90302" lon="0.13099">
        <ele>1819</ele>
        <time>2015-05-08T08:06:27Z</time>
      </trkpt>
      <trkpt lat="42.90309" lon="0.131">
        <ele>1817</ele>
        <time>2015-05-08T08:06:31Z</time>
      </trkpt>
      <trkpt lat="42.90317" lon="0.13103">
        <ele>1813</ele>
        <time>2015-05-08T08:06:35Z</time>
      </trkpt>
      <trkpt lat="42.90325" lon="0.13101">
        <ele>1810</ele>
        <time>2015-05-08T08:06:38Z</time>
      </trkpt>
      <trkpt lat="42.90326" lon="0.13104">
        <ele>1810</ele>
        <time>2015-05-08T08:06:42Z</time>
      </trkpt>
      <trkpt lat="42.90329" lon="0.13101">
        <ele>1809</ele>
        <time>2015-05-08T08:06:45Z</time>
      </trkpt>
      <trkpt lat="42.90337" lon="0.13114">
        <ele>1806</ele>
        <time>2015-05-08T08:06:55Z</time>
      </trkpt>
      <trkpt lat="42.90339" lon="0.13128">
        <ele>1803</ele>
        <time>2015-05-08T08:07:12Z</time>
      </trkpt>
      <trkpt lat="42.9034" lon="0.13125">
        <ele>1803</ele>
        <time>2015-05-08T08:07:31Z</time>
      </trkpt>
      <trkpt lat="42.90339" lon="0.13124">
        <ele>1804</ele>
        <time>2015-05-08T08:07:46Z</time>
      </trkpt>
      <trkpt lat="42.90341" lon="0.13124">
        <ele>1803</ele>
        <time>2015-05-08T08:07:48Z</time>
      </trkpt>
      <trkpt lat="42.90344" lon="0.13117">
        <ele>1802</ele>
        <time>2015-05-08T08:07:53Z</time>
      </trkpt>
      <trkpt lat="42.90347" lon="0.13113">
        <ele>1801</ele>
        <time>2015-05-08T08:07:56Z</time>
      </trkpt>
      <trkpt lat="42.90351" lon="0.13113">
        <ele>1799</ele>
        <time>2015-05-08T08:08:11Z</time>
      </trkpt>
      <trkpt lat="42.90355" lon="0.1312">
        <ele>1796</ele>
        <time>2015-05-08T08:08:23Z</time>
      </trkpt>
      <trkpt lat="42.90352" lon="0.13127">
        <ele>1796</ele>
        <time>2015-05-08T08:08:37Z</time>
      </trkpt>
      <trkpt lat="42.90351" lon="0.13125">
        <ele>1796</ele>
        <time>2015-05-08T08:08:57Z</time>
      </trkpt>
      <trkpt lat="42.90354" lon="0.13123">
        <ele>1796</ele>
        <time>2015-05-08T08:09:15Z</time>
      </trkpt>
      <trkpt lat="42.90352" lon="0.13128">
        <ele>1796</ele>
        <time>2015-05-08T08:09:28Z</time>
      </trkpt>
      <trkpt lat="42.90355" lon="0.13129">
        <ele>1793</ele>
        <time>2015-05-08T08:09:32Z</time>
      </trkpt>
      <trkpt lat="42.90357" lon="0.13128">
        <ele>1793</ele>
        <time>2015-05-08T08:09:33Z</time>
      </trkpt>
      <trkpt lat="42.90364" lon="0.13132">
        <ele>1787</ele>
        <time>2015-05-08T08:09:38Z</time>
      </trkpt>
      <trkpt lat="42.90365" lon="0.13132">
        <ele>1787</ele>
        <time>2015-05-08T08:09:39Z</time>
      </trkpt>
      <trkpt lat="42.90364" lon="0.13138">
        <ele>1786</ele>
        <time>2015-05-08T08:09:46Z</time>
      </trkpt>
      <trkpt lat="42.90366" lon="0.1314">
        <ele>1784</ele>
        <time>2015-05-08T08:09:58Z</time>
      </trkpt>
      <trkpt lat="42.90368" lon="0.13142">
        <ele>1782</ele>
        <time>2015-05-08T08:10:03Z</time>
      </trkpt>
      <trkpt lat="42.90369" lon="0.13144">
        <ele>1781</ele>
        <time>2015-05-08T08:10:04Z</time>
      </trkpt>
      <trkpt lat="42.90369" lon="0.13145">
        <ele>1780</ele>
        <time>2015-05-08T08:10:05Z</time>
      </trkpt>
      <trkpt lat="42.9037" lon="0.13148">
        <ele>1779</ele>
        <time>2015-05-08T08:10:07Z</time>
      </trkpt>
      <trkpt lat="42.90378" lon="0.13148">
        <ele>1775</ele>
        <time>2015-05-08T08:10:11Z</time>
      </trkpt>
      <trkpt lat="42.9038" lon="0.1315">
        <ele>1773</ele>
        <time>2015-05-08T08:10:12Z</time>
      </trkpt>
      <trkpt lat="42.90385" lon="0.1315">
        <ele>1771</ele>
        <time>2015-05-08T08:10:14Z</time>
      </trkpt>
      <trkpt lat="42.90386" lon="0.13149">
        <ele>1770</ele>
        <time>2015-05-08T08:10:15Z</time>
      </trkpt>
      <trkpt lat="42.90392" lon="0.13152">
        <ele>1768</ele>
        <time>2015-05-08T08:10:17Z</time>
      </trkpt>
      <trkpt lat="42.90401" lon="0.13151">
        <ele>1764</ele>
        <time>2015-05-08T08:10:19Z</time>
      </trkpt>
      <trkpt lat="42.90404" lon="0.13155">
        <ele>1762</ele>
        <time>2015-05-08T08:10:20Z</time>
      </trkpt>
      <trkpt lat="42.90413" lon="0.13157">
        <ele>1758</ele>
        <time>2015-05-08T08:10:22Z</time>
      </trkpt>
      <trkpt lat="42.90416" lon="0.13156">
        <ele>1757</ele>
        <time>2015-05-08T08:10:23Z</time>
      </trkpt>
      <trkpt lat="42.90422" lon="0.13161">
        <ele>1754</ele>
        <time>2015-05-08T08:10:25Z</time>
      </trkpt>
      <trkpt lat="42.90425" lon="0.13165">
        <ele>1752</ele>
        <time>2015-05-08T08:10:26Z</time>
      </trkpt>
      <trkpt lat="42.90433" lon="0.13169">
        <ele>1750</ele>
        <time>2015-05-08T08:10:28Z</time>
      </trkpt>
      <trkpt lat="42.90445" lon="0.1317">
        <ele>1746</ele>
        <time>2015-05-08T08:10:31Z</time>
      </trkpt>
      <trkpt lat="42.90447" lon="0.13167">
        <ele>1745</ele>
        <time>2015-05-08T08:10:40Z</time>
      </trkpt>
      <trkpt lat="42.90451" lon="0.13159">
        <ele>1746</ele>
        <time>2015-05-08T08:10:54Z</time>
      </trkpt>
      <trkpt lat="42.90454" lon="0.1316">
        <ele>1745</ele>
        <time>2015-05-08T08:11:06Z</time>
      </trkpt>
      <trkpt lat="42.90457" lon="0.13158">
        <ele>1745</ele>
        <time>2015-05-08T08:11:10Z</time>
      </trkpt>
      <trkpt lat="42.90465" lon="0.13153">
        <ele>1744</ele>
        <time>2015-05-08T08:11:16Z</time>
      </trkpt>
      <trkpt lat="42.90473" lon="0.13142">
        <ele>1745</ele>
        <time>2015-05-08T08:11:21Z</time>
      </trkpt>
      <trkpt lat="42.90483" lon="0.13138">
        <ele>1743</ele>
        <time>2015-05-08T08:11:23Z</time>
      </trkpt>
      <trkpt lat="42.90507" lon="0.13112">
        <ele>1743</ele>
        <time>2015-05-08T08:11:31Z</time>
      </trkpt>
      <trkpt lat="42.90508" lon="0.13113">
        <ele>1742</ele>
        <time>2015-05-08T08:11:32Z</time>
      </trkpt>
      <trkpt lat="42.90513" lon="0.13131">
        <ele>1738</ele>
        <time>2015-05-08T08:11:44Z</time>
      </trkpt>
      <trkpt lat="42.90516" lon="0.13127">
        <ele>1737</ele>
        <time>2015-05-08T08:11:50Z</time>
      </trkpt>
      <trkpt lat="42.90518" lon="0.13126">
        <ele>1737</ele>
        <time>2015-05-08T08:11:52Z</time>
      </trkpt>
      <trkpt lat="42.90523" lon="0.13115">
        <ele>1738</ele>
        <time>2015-05-08T08:12:04Z</time>
      </trkpt>
      <trkpt lat="42.90526" lon="0.13109">
        <ele>1738</ele>
        <time>2015-05-08T08:12:12Z</time>
      </trkpt>
      <trkpt lat="42.90538" lon="0.13097">
        <ele>1737</ele>
        <time>2015-05-08T08:12:22Z</time>
      </trkpt>
      <trkpt lat="42.90539" lon="0.13095">
        <ele>1737</ele>
        <time>2015-05-08T08:12:23Z</time>
      </trkpt>
      <trkpt lat="42.90556" lon="0.13093">
        <ele>1734</ele>
        <time>2015-05-08T08:12:34Z</time>
      </trkpt>
    </trkseg>
  </trk>
</gpx>